Wetterdaten: Sonntag, 10.05.2020
Datum Zeit Temp. Aussen Temp. o. S. Temp +5cm Feuchte Auss Luftdruck Regen Sonnenschein Regendauer Solar Windben Empfang
10.05.2020 00:00 16,2 C 14,4 C 12,8 C 70 % 1008,8 hPa 0,0 l/m 0 min 0 min 0 W/m 0,0 km/h (0 Bft) 95,65 %
10.05.2020 00:02 16,2 C 14,4 C 12,8 C 70 % 1008,8 hPa 0,0 l/m 0 min 0 min 0 W/m 0,0 km/h (0 Bft) 93,18 %
10.05.2020 00:04 16,1 C 15,0 C 12,8 C 71 % 1008,8 hPa 0,0 l/m 0 min 0 min 0 W/m 0,0 km/h (0 Bft) 95,74 %
10.05.2020 00:08 16,1 C 15,0 C 13,3 C 71 % 1008,8 hPa 0,0 l/m 0 min 0 min 0 W/m 0,0 km/h (0 Bft) 95,74 %
10.05.2020 00:10 16,1 C 15,0 C 13,3 C 72 % 1008,8 hPa 0,0 l/m 0 min 0 min 0 W/m 3,2 km/h (1 Bft) 95,65 %
10.05.2020 00:12 16,1 C 15,0 C 12,8 C 72 % 1008,7 hPa 0,0 l/m 0 min 0 min 0 W/m 0,0 km/h (0 Bft) 97,87 %
10.05.2020 00:14 16,0 C 14,4 C 12,8 C 72 % 1008,7 hPa 0,0 l/m 0 min 0 min 0 W/m 0,0 km/h (0 Bft) 97,87 %
10.05.2020 00:16 16,0 C 14,4 C 12,8 C 72 % 1008,7 hPa 0,0 l/m 0 min 0 min 0 W/m 0,0 km/h (0 Bft) 97,87 %
10.05.2020 00:18 16,0 C 14,4 C 12,8 C 72 % 1008,7 hPa 0,0 l/m 0 min 0 min 0 W/m 0,0 km/h (0 Bft) 97,87 %
10.05.2020 00:20 16,0 C 13,9 C 12,8 C 72 % 1008,7 hPa 0,0 l/m 0 min 0 min 0 W/m 0,0 km/h (0 Bft) 97,87 %
10.05.2020 00:22 15,9 C 13,9 C 12,8 C 72 % 1008,7 hPa 0,0 l/m 0 min 0 min 0 W/m 0,0 km/h (0 Bft) 97,83 %
10.05.2020 00:24 15,9 C 13,9 C 12,8 C 73 % 1008,6 hPa 0,0 l/m 0 min 0 min 0 W/m 3,2 km/h (1 Bft) 97,87 %
10.05.2020 00:26 15,9 C 14,4 C 12,8 C 73 % 1008,7 hPa 0,0 l/m 0 min 0 min 0 W/m 3,2 km/h (1 Bft) 97,87 %
10.05.2020 00:28 15,9 C 14,4 C 12,8 C 73 % 1008,7 hPa 0,0 l/m 0 min 0 min 0 W/m 3,2 km/h (1 Bft) 97,87 %
10.05.2020 00:30 15,9 C 14,4 C 12,8 C 74 % 1008,6 hPa 0,0 l/m 0 min 0 min 0 W/m 0,0 km/h (0 Bft) 93,62 %
10.05.2020 00:32 15,8 C 14,4 C 12,8 C 74 % 1008,6 hPa 0,0 l/m 0 min 0 min 0 W/m 3,2 km/h (1 Bft) 95,74 %
10.05.2020 00:34 15,8 C 14,4 C 12,8 C 74 % 1008,6 hPa 0,0 l/m 0 min 0 min 0 W/m 0,0 km/h (0 Bft) 95,65 %
10.05.2020 00:36 15,8 C 14,4 C 12,8 C 74 % 1008,6 hPa 0,0 l/m 0 min 0 min 0 W/m 3,2 km/h (1 Bft) 95,74 %
10.05.2020 00:38 15,8 C 14,4 C 12,8 C 75 % 1008,5 hPa 0,0 l/m 0 min 0 min 0 W/m 0,0 km/h (0 Bft) 95,74 %
10.05.2020 00:40 15,8 C 14,4 C 12,8 C 75 % 1008,6 hPa 0,0 l/m 0 min 0 min 0 W/m 3,2 km/h (1 Bft) 95,74 %
10.05.2020 00:42 15,8 C 14,4 C 12,8 C 75 % 1008,5 hPa 0,0 l/m 0 min 0 min 0 W/m 0,0 km/h (0 Bft) 95,74 %
10.05.2020 00:44 15,8 C 14,4 C 12,8 C 75 % 1008,5 hPa 0,0 l/m 0 min 0 min 0 W/m 0,0 km/h (0 Bft) 95,74 %
10.05.2020 00:46 15,7 C 14,4 C 12,8 C 75 % 1008,5 hPa 0,0 l/m 0 min 0 min 0 W/m 3,2 km/h (1 Bft) 95,65 %
10.05.2020 00:48 15,7 C 15,0 C 12,8 C 75 % 1008,5 hPa 0,0 l/m 0 min 0 min 0 W/m 6,4 km/h (2 Bft) 95,74 %
10.05.2020 00:50 15,7 C 15,0 C 12,8 C 75 % 1008,4 hPa 0,0 l/m 0 min 0 min 0 W/m 3,2 km/h (1 Bft) 97,87 %
10.05.2020 00:52 15,7 C 15,0 C 12,8 C 76 % 1008,4 hPa 0,0 l/m 0 min 0 min 0 W/m 3,2 km/h (1 Bft) 97,83 %
10.05.2020 00:54 15,7 C 15,0 C 13,3 C 76 % 1008,4 hPa 0,0 l/m 0 min 0 min 0 W/m 6,4 km/h (2 Bft) 95,74 %
10.05.2020 00:56 15,7 C 15,0 C 13,3 C 76 % 1008,4 hPa 0,0 l/m 0 min 0 min 0 W/m 6,4 km/h (2 Bft) 48,72 %
10.05.2020 00:58 15,7 C 15,0 C 13,9 C 76 % 1008,3 hPa 0,0 l/m 0 min 0 min 0 W/m 6,4 km/h (2 Bft) 97,83 %
10.05.2020 01:00 15,7 C 15,0 C 13,9 C 76 % 1008,3 hPa 0,0 l/m 0 min 0 min 0 W/m 0,0 km/h (0 Bft) 97,87 %
10.05.2020 01:02 15,7 C 15,0 C 13,3 C 76 % 1008,2 hPa 0,0 l/m 0 min 0 min 0 W/m 0,0 km/h (0 Bft) 97,87 %
10.05.2020 01:04 15,7 C 14,4 C 13,3 C 76 % 1008,2 hPa 0,0 l/m 0 min 0 min 0 W/m 0,0 km/h (0 Bft) 95,74 %
10.05.2020 01:06 15,7 C 14,4 C 13,3 C 76 % 1008,2 hPa 0,0 l/m 0 min 0 min 0 W/m 0,0 km/h (0 Bft) 97,87 %
10.05.2020 01:08 15,7 C 14,4 C 13,3 C 76 % 1008,1 hPa 0,0 l/m 0 min 0 min 0 W/m 0,0 km/h (0 Bft) 97,83 %
10.05.2020 01:10 15,7 C 14,4 C 12,8 C 76 % 1008,2 hPa 0,0 l/m 0 min 0 min 0 W/m 0,0 km/h (0 Bft) 95,74 %
10.05.2020 01:12 15,7 C 14,4 C 13,3 C 76 % 1008,2 hPa 0,0 l/m 0 min 0 min 0 W/m 3,2 km/h (1 Bft) 97,87 %
10.05.2020 01:14 15,7 C 14,4 C 13,3 C 77 % 1008,2 hPa 0,0 l/m 0 min 0 min 0 W/m 6,4 km/h (2 Bft) 95,74 %
10.05.2020 01:16 15,7 C 15,0 C 13,3 C 77 % 1008,2 hPa 0,0 l/m 0 min 0 min 0 W/m 3,2 km/h (1 Bft) 97,87 %
10.05.2020 01:18 15,7 C 15,0 C 13,3 C 77 % 1008,2 hPa 0,0 l/m 0 min 0 min 0 W/m 12,9 km/h (3 Bft) 97,87 %
10.05.2020 01:20 15,7 C 15,0 C 13,9 C 77 % 1008,2 hPa 0,0 l/m 0 min 0 min 0 W/m 3,2 km/h (1 Bft) 100,00 %
10.05.2020 01:22 15,7 C 15,0 C 13,9 C 77 % 1008,2 hPa 0,0 l/m 0 min 0 min 0 W/m 6,4 km/h (2 Bft) 97,87 %
10.05.2020 01:24 15,7 C 15,0 C 13,9 C 77 % 1008,1 hPa 0,0 l/m 0 min 0 min 0 W/m 3,2 km/h (1 Bft) 100,00 %
10.05.2020 01:26 15,7 C 15,0 C 13,9 C 77 % 1008,2 hPa 0,0 l/m 0 min 0 min 0 W/m 3,2 km/h (1 Bft) 100,00 %
10.05.2020 01:28 15,7 C 15,0 C 13,9 C 77 % 1008,1 hPa 0,0 l/m 0 min 0 min 0 W/m 3,2 km/h (1 Bft) 100,00 %
10.05.2020 01:30 15,7 C 15,0 C 13,3 C 77 % 1008,2 hPa 0,0 l/m 0 min 0 min 0 W/m 0,0 km/h (0 Bft) 97,87 %
10.05.2020 01:32 15,7 C 15,0 C 13,9 C 77 % 1008,2 hPa 0,0 l/m 0 min 0 min 0 W/m 3,2 km/h (1 Bft) 100,00 %
10.05.2020 01:34 15,7 C 15,0 C 13,9 C 77 % 1008,1 hPa 0,0 l/m 0 min 0 min 0 W/m 3,2 km/h (1 Bft) 97,87 %
10.05.2020 01:36 15,7 C 15,0 C 13,3 C 77 % 1008,1 hPa 0,0 l/m 0 min 0 min 0 W/m 12,9 km/h (3 Bft) 100,00 %
10.05.2020 01:38 15,7 C 15,0 C 13,9 C 77 % 1008,1 hPa 0,0 l/m 0 min 0 min 0 W/m 3,2 km/h (1 Bft) 100,00 %
10.05.2020 01:40 15,7 C 15,0 C 13,9 C 77 % 1008,2 hPa 0,0 l/m 0 min 0 min 0 W/m 3,2 km/h (1 Bft) 100,00 %
10.05.2020 01:42 15,7 C 15,0 C 13,9 C 78 % 1008,1 hPa 0,0 l/m 0 min 0 min 0 W/m 3,2 km/h (1 Bft) 100,00 %
10.05.2020 01:44 15,8 C 15,0 C 13,9 C 78 % 1008,1 hPa 0,0 l/m 0 min 0 min 0 W/m 12,9 km/h (3 Bft) 100,00 %
10.05.2020 01:46 15,8 C 14,4 C 13,9 C 78 % 1008,0 hPa 0,0 l/m 0 min 0 min 0 W/m 6,4 km/h (2 Bft) 100,00 %
10.05.2020 01:48 15,8 C 15,0 C 13,9 C 78 % 1008,0 hPa 0,0 l/m 0 min 0 min 0 W/m 3,2 km/h (1 Bft) 100,00 %
10.05.2020 01:50 15,8 C 15,0 C 14,4 C 78 % 1008,0 hPa 0,0 l/m 0 min 0 min 0 W/m 6,4 km/h (2 Bft) 100,00 %
10.05.2020 01:52 15,8 C 14,4 C 13,9 C 78 % 1008,0 hPa 0,0 l/m 0 min 0 min 0 W/m 0,0 km/h (0 Bft) 95,74 %
10.05.2020 01:54 15,8 C 14,4 C 13,9 C 78 % 1007,9 hPa 0,0 l/m 0 min 0 min 0 W/m 0,0 km/h (0 Bft) 100,00 %
10.05.2020 01:56 15,8 C 14,4 C 13,9 C 78 % 1007,9 hPa 0,0 l/m 0 min 0 min 0 W/m 6,4 km/h (2 Bft) 100,00 %
10.05.2020 01:58 15,8 C 14,4 C 13,9 C 78 % 1008,0 hPa 0,0 l/m 0 min 0 min 0 W/m 6,4 km/h (2 Bft) 100,00 %
10.05.2020 02:00 15,8 C 14,4 C 13,9 C 78 % 1007,9 hPa 0,0 l/m 0 min 0 min 0 W/m 6,4 km/h (2 Bft) 100,00 %
10.05.2020 02:02 15,8 C 14,4 C 14,4 C 78 % 1007,9 hPa 0,0 l/m 0 min 0 min 0 W/m 12,9 km/h (3 Bft) 100,00 %
10.05.2020 02:04 15,8 C 14,4 C 13,9 C 78 % 1007,9 hPa 0,0 l/m 0 min 0 min 0 W/m 3,2 km/h (1 Bft) 100,00 %
10.05.2020 02:06 15,8 C 14,4 C 13,9 C 78 % 1007,8 hPa 0,0 l/m 0 min 0 min 0 W/m 6,4 km/h (2 Bft) 97,87 %
10.05.2020 02:08 15,8 C 14,4 C 13,9 C 78 % 1007,9 hPa 0,0 l/m 0 min 0 min 0 W/m 0,0 km/h (0 Bft) 100,00 %
10.05.2020 02:10 15,8 C 14,4 C 13,9 C 78 % 1007,9 hPa 0,0 l/m 0 min 0 min 0 W/m 3,2 km/h (1 Bft) 100,00 %
10.05.2020 02:12 15,7 C 14,4 C 13,9 C 79 % 1007,9 hPa 0,0 l/m 0 min 0 min 0 W/m 6,4 km/h (2 Bft) 100,00 %
10.05.2020 02:14 15,7 C 14,4 C 13,9 C 79 % 1007,9 hPa 0,0 l/m 0 min 0 min 0 W/m 6,4 km/h (2 Bft) 97,87 %
10.05.2020 02:16 15,7 C 14,4 C 13,9 C 79 % 1007,9 hPa 0,0 l/m 0 min 0 min 0 W/m 6,4 km/h (2 Bft) 97,87 %
10.05.2020 02:18 15,7 C 14,4 C 13,9 C 79 % 1007,8 hPa 0,0 l/m 0 min 0 min 0 W/m 6,4 km/h (2 Bft) 97,83 %
10.05.2020 02:20 15,7 C 14,4 C 13,9 C 79 % 1007,9 hPa 0,0 l/m 0 min 0 min 0 W/m 6,4 km/h (2 Bft) 97,87 %
10.05.2020 02:22 15,7 C 14,4 C 13,9 C 79 % 1007,9 hPa 0,0 l/m 0 min 0 min 0 W/m 12,9 km/h (3 Bft) 97,87 %
10.05.2020 02:24 15,7 C 14,4 C 13,9 C 79 % 1007,9 hPa 0,0 l/m 0 min 0 min 0 W/m 3,2 km/h (1 Bft) 97,87 %
10.05.2020 02:26 15,6 C 14,4 C 13,9 C 79 % 1007,8 hPa 0,0 l/m 0 min 0 min 0 W/m 6,4 km/h (2 Bft) 95,74 %
10.05.2020 02:28 15,6 C 14,4 C 13,9 C 79 % 1007,8 hPa 0,0 l/m 0 min 0 min 0 W/m 12,9 km/h (3 Bft) 95,74 %
10.05.2020 02:30 15,6 C 14,4 C 13,9 C 79 % 1007,8 hPa 0,0 l/m 0 min 0 min 0 W/m 12,9 km/h (3 Bft) 95,65 %
10.05.2020 02:32 15,6 C 14,4 C 13,9 C 80 % 1007,8 hPa 0,0 l/m 0 min 0 min 0 W/m 12,9 km/h (3 Bft) 97,87 %
10.05.2020 02:34 15,6 C 14,4 C 13,9 C 80 % 1007,8 hPa 0,0 l/m 0 min 0 min 0 W/m 16,1 km/h (3 Bft) 97,87 %
10.05.2020 02:36 15,5 C 14,4 C 13,9 C 80 % 1007,8 hPa 0,0 l/m 0 min 0 min 0 W/m 16,1 km/h (3 Bft) 97,87 %
10.05.2020 02:38 15,5 C 13,9 C 13,9 C 80 % 1007,8 hPa 0,0 l/m 0 min 0 min 0 W/m 12,9 km/h (3 Bft) 97,87 %
10.05.2020 02:40 15,4 C 13,9 C 13,9 C 80 % 1007,8 hPa 0,0 l/m 0 min 0 min 0 W/m 3,2 km/h (1 Bft) 93,62 %
10.05.2020 02:42 15,4 C 13,9 C 13,3 C 80 % 1007,8 hPa 0,0 l/m 0 min 0 min 0 W/m 3,2 km/h (1 Bft) 97,83 %
10.05.2020 02:44 15,4 C 13,9 C 13,3 C 80 % 1007,8 hPa 0,0 l/m 0 min 0 min 0 W/m 12,9 km/h (3 Bft) 95,74 %
10.05.2020 02:46 15,4 C 13,9 C 13,3 C 80 % 1007,8 hPa 0,0 l/m 0 min 0 min 0 W/m 6,4 km/h (2 Bft) 95,74 %
10.05.2020 02:48 15,4 C 13,9 C 13,3 C 80 % 1007,8 hPa 0,0 l/m 0 min 0 min 0 W/m 3,2 km/h (1 Bft) 95,74 %
10.05.2020 02:50 15,4 C 13,9 C 13,3 C 80 % 1007,8 hPa 0,0 l/m 0 min 0 min 0 W/m 6,4 km/h (2 Bft) 95,74 %
10.05.2020 02:52 15,3 C 13,9 C 13,3 C 80 % 1007,8 hPa 0,0 l/m 0 min 0 min 0 W/m 3,2 km/h (1 Bft) 97,87 %
10.05.2020 02:54 15,3 C 13,9 C 13,3 C 80 % 1007,8 hPa 0,0 l/m 0 min 0 min 0 W/m 0,0 km/h (0 Bft) 97,83 %
10.05.2020 02:56 15,3 C 13,9 C 13,3 C 80 % 1007,7 hPa 0,0 l/m 0 min 0 min 0 W/m 0,0 km/h (0 Bft) 95,74 %
10.05.2020 02:58 15,3 C 13,9 C 13,3 C 81 % 1007,7 hPa 0,0 l/m 0 min 0 min 0 W/m 0,0 km/h (0 Bft) 95,74 %
10.05.2020 03:00 15,3 C 13,9 C 13,3 C 81 % 1007,6 hPa 0,0 l/m 0 min 0 min 0 W/m 3,2 km/h (1 Bft) 95,74 %
10.05.2020 03:02 15,2 C 13,9 C 13,3 C 81 % 1007,6 hPa 0,0 l/m 0 min 0 min 0 W/m 6,4 km/h (2 Bft) 97,87 %
10.05.2020 03:04 15,2 C 13,9 C 13,3 C 81 % 1007,6 hPa 0,0 l/m 0 min 0 min 0 W/m 6,4 km/h (2 Bft) 97,83 %
10.05.2020 03:06 15,2 C 13,9 C 13,3 C 81 % 1007,6 hPa 0,0 l/m 0 min 0 min 0 W/m 6,4 km/h (2 Bft) 97,87 %
10.05.2020 03:08 15,1 C 13,9 C 13,3 C 81 % 1007,6 hPa 0,0 l/m 0 min 0 min 0 W/m 0,0 km/h (0 Bft) 97,87 %
10.05.2020 03:10 15,1 C 13,3 C 13,3 C 81 % 1007,6 hPa 0,0 l/m 0 min 0 min 0 W/m 0,0 km/h (0 Bft) 97,87 %
10.05.2020 03:12 15,1 C 13,3 C 13,3 C 81 % 1007,6 hPa 0,0 l/m 0 min 0 min 0 W/m 0,0 km/h (0 Bft) 97,87 %
10.05.2020 03:14 15,1 C 13,3 C 13,3 C 82 % 1007,5 hPa 0,0 l/m 0 min 0 min 0 W/m 0,0 km/h (0 Bft) 95,74 %
10.05.2020 03:16 15,1 C 13,9 C 13,3 C 82 % 1007,5 hPa 0,0 l/m 0 min 0 min 0 W/m 0,0 km/h (0 Bft) 97,87 %
10.05.2020 03:18 15,0 C 13,3 C 13,3 C 82 % 1007,5 hPa 0,0 l/m 0 min 0 min 0 W/m 3,2 km/h (1 Bft) 97,83 %
10.05.2020 03:20 15,0 C 13,3 C 13,3 C 82 % 1007,4 hPa 0,0 l/m 0 min 0 min 0 W/m 6,4 km/h (2 Bft) 97,87 %
10.05.2020 03:22 14,9 C 13,3 C 13,3 C 82 % 1007,4 hPa 0,0 l/m 0 min 0 min 0 W/m 6,4 km/h (2 Bft) 95,74 %
10.05.2020 03:24 14,9 C 13,3 C 12,8 C 82 % 1007,4 hPa 0,0 l/m 0 min 0 min 0 W/m 16,1 km/h (3 Bft) 95,74 %
10.05.2020 03:26 14,9 C 13,3 C 12,8 C 82 % 1007,4 hPa 0,0 l/m 0 min 0 min 0 W/m 0,0 km/h (0 Bft) 97,87 %
10.05.2020 03:28 14,9 C 13,3 C 12,8 C 83 % 1007,4 hPa 0,0 l/m 0 min 0 min 0 W/m 0,0 km/h (0 Bft) 97,83 %
10.05.2020 03:30 14,8 C 13,3 C 12,8 C 83 % 1007,4 hPa 0,0 l/m 0 min 0 min 0 W/m 0,0 km/h (0 Bft) 97,87 %
10.05.2020 03:32 14,8 C 13,3 C 12,8 C 83 % 1007,3 hPa 0,0 l/m 0 min 0 min 0 W/m 0,0 km/h (0 Bft) 95,74 %
10.05.2020 03:34 14,8 C 13,3 C 12,8 C 83 % 1007,4 hPa 0,0 l/m 0 min 0 min 0 W/m 0,0 km/h (0 Bft) 97,87 %
10.05.2020 03:36 14,8 C 13,3 C 12,8 C 83 % 1007,3 hPa 0,0 l/m 0 min 0 min 0 W/m 0,0 km/h (0 Bft) 97,87 %
10.05.2020 03:38 14,8 C 13,3 C 12,8 C 83 % 1007,3 hPa 0,0 l/m 0 min 0 min 0 W/m 0,0 km/h (0 Bft) 97,87 %
10.05.2020 03:40 14,7 C 13,3 C 12,8 C 83 % 1007,3 hPa 0,0 l/m 0 min 0 min 0 W/m 0,0 km/h (0 Bft) 97,83 %
10.05.2020 03:42 14,7 C 13,3 C 12,8 C 83 % 1007,3 hPa 0,0 l/m 0 min 0 min 0 W/m 0,0 km/h (0 Bft) 95,74 %
10.05.2020 03:44 14,7 C 13,3 C 12,8 C 83 % 1007,3 hPa 0,0 l/m 0 min 0 min 0 W/m 0,0 km/h (0 Bft) 95,74 %
10.05.2020 03:46 14,7 C 13,3 C 12,8 C 83 % 1007,3 hPa 0,0 l/m 0 min 0 min 0 W/m 0,0 km/h (0 Bft) 97,87 %
10.05.2020 03:48 14,7 C 13,3 C 12,8 C 83 % 1007,3 hPa 0,0 l/m 0 min 0 min 0 W/m 0,0 km/h (0 Bft) 100,00 %
10.05.2020 03:50 14,6 C 13,3 C 12,8 C 83 % 1007,3 hPa 0,0 l/m 0 min 0 min 0 W/m 0,0 km/h (0 Bft) 97,87 %
10.05.2020 03:52 14,6 C 13,3 C 12,8 C 83 % 1007,3 hPa 0,0 l/m 0 min 0 min 0 W/m 0,0 km/h (0 Bft) 97,83 %
10.05.2020 03:54 14,6 C 13,3 C 12,8 C 84 % 1007,3 hPa 0,0 l/m 0 min 0 min 0 W/m 0,0 km/h (0 Bft) 97,87 %
10.05.2020 03:56 14,6 C 13,3 C 12,8 C 84 % 1007,2 hPa 0,0 l/m 0 min 0 min 0 W/m 0,0 km/h (0 Bft) 97,87 %
10.05.2020 03:58 14,6 C 13,3 C 12,8 C 84 % 1007,2 hPa 0,0 l/m 0 min 0 min 0 W/m 0,0 km/h (0 Bft) 97,87 %
10.05.2020 04:00 14,6 C 13,3 C 12,8 C 84 % 1007,2 hPa 0,0 l/m 0 min 0 min 0 W/m 0,0 km/h (0 Bft) 95,74 %
10.05.2020 04:02 14,5 C 13,3 C 12,8 C 84 % 1007,2 hPa 0,0 l/m 0 min 0 min 0 W/m 3,2 km/h (1 Bft) 100,00 %
10.05.2020 04:04 14,5 C 13,3 C 12,8 C 84 % 1007,2 hPa 0,0 l/m 0 min 0 min 0 W/m 6,4 km/h (2 Bft) 93,62 %
10.05.2020 04:06 14,5 C 13,3 C 12,8 C 84 % 1007,2 hPa 0,0 l/m 0 min 0 min 0 W/m 6,4 km/h (2 Bft) 100,00 %
10.05.2020 04:08 14,4 C 13,3 C 12,8 C 84 % 1007,2 hPa 0,0 l/m 0 min 0 min 0 W/m 3,2 km/h (1 Bft) 95,74 %
10.05.2020 04:10 14,4 C 13,3 C 12,8 C 84 % 1007,2 hPa 0,0 l/m 0 min 0 min 0 W/m 6,4 km/h (2 Bft) 95,74 %
10.05.2020 04:12 14,4 C 13,3 C 12,8 C 84 % 1007,1 hPa 0,0 l/m 0 min 0 min 0 W/m 0,0 km/h (0 Bft) 95,74 %
10.05.2020 04:14 14,3 C 13,3 C 12,8 C 84 % 1007,1 hPa 0,0 l/m 0 min 0 min 0 W/m 3,2 km/h (1 Bft) 97,83 %
10.05.2020 04:16 14,3 C 13,3 C 12,8 C 84 % 1007,0 hPa 0,0 l/m 0 min 0 min 0 W/m 6,4 km/h (2 Bft) 97,87 %
10.05.2020 04:18 14,3 C 13,3 C 12,8 C 84 % 1007,0 hPa 0,0 l/m 0 min 0 min 0 W/m 6,4 km/h (2 Bft) 97,87 %
10.05.2020 04:20 14,3 C 13,3 C 12,8 C 84 % 1007,0 hPa 0,0 l/m 0 min 0 min 0 W/m 0,0 km/h (0 Bft) 95,74 %
10.05.2020 04:22 14,3 C 12,8 C 12,8 C 85 % 1007,0 hPa 0,0 l/m 0 min 0 min 0 W/m 0,0 km/h (0 Bft) 76,60 %
10.05.2020 04:24 14,3 C 12,8 C 12,8 C 85 % 1007,0 hPa 0,0 l/m 0 min 0 min 0 W/m 0,0 km/h (0 Bft) 73,17 %
10.05.2020 04:26 14,3 C 12,8 C 12,8 C 85 % 1007,0 hPa 0,0 l/m 0 min 0 min 0 W/m 0,0 km/h (0 Bft) 97,83 %
10.05.2020 04:28 14,3 C 12,8 C 12,2 C 85 % 1006,9 hPa 0,0 l/m 0 min 0 min 0 W/m 3,2 km/h (1 Bft) 95,74 %
10.05.2020 04:30 14,3 C 12,8 C 12,2 C 85 % 1006,9 hPa 0,0 l/m 0 min 0 min 0 W/m 6,4 km/h (2 Bft) 95,74 %
10.05.2020 04:32 14,3 C 12,8 C 12,2 C 85 % 1006,9 hPa 0,0 l/m 0 min 0 min 0 W/m 3,2 km/h (1 Bft) 95,74 %
10.05.2020 04:34 14,3 C 12,8 C 12,2 C 85 % 1006,8 hPa 0,0 l/m 0 min 0 min 0 W/m 0,0 km/h (0 Bft) 97,87 %
10.05.2020 04:36 14,3 C 12,8 C 12,2 C 85 % 1006,8 hPa 0,0 l/m 0 min 0 min 0 W/m 0,0 km/h (0 Bft) 97,87 %
10.05.2020 04:38 14,3 C 12,8 C 12,2 C 85 % 1006,8 hPa 0,0 l/m 0 min 0 min 0 W/m 0,0 km/h (0 Bft) 95,65 %
10.05.2020 04:40 14,3 C 12,8 C 12,2 C 85 % 1006,8 hPa 0,0 l/m 0 min 0 min 0 W/m 0,0 km/h (0 Bft) 97,87 %
10.05.2020 04:42 14,3 C 12,2 C 12,2 C 85 % 1006,8 hPa 0,0 l/m 0 min 0 min 0 W/m 0,0 km/h (0 Bft) 97,87 %
10.05.2020 04:44 14,3 C 12,2 C 11,7 C 85 % 1006,8 hPa 0,0 l/m 0 min 0 min 0 W/m 0,0 km/h (0 Bft) 97,87 %
10.05.2020 04:46 14,2 C 12,2 C 11,7 C 85 % 1006,7 hPa 0,0 l/m 0 min 0 min 0 W/m 0,0 km/h (0 Bft) 97,87 %
10.05.2020 04:48 14,2 C 12,2 C 11,7 C 85 % 1006,7 hPa 0,0 l/m 0 min 0 min 0 W/m 0,0 km/h (0 Bft) 95,74 %
10.05.2020 04:50 14,1 C 12,2 C 11,7 C 85 % 1006,8 hPa 0,0 l/m 0 min 0 min 0 W/m 0,0 km/h (0 Bft) 100,00 %
10.05.2020 04:52 14,1 C 12,2 C 11,7 C 85 % 1006,8 hPa 0,0 l/m 0 min 0 min 0 W/m 0,0 km/h (0 Bft) 100,00 %
10.05.2020 04:54 14,1 C 12,2 C 11,7 C 85 % 1006,7 hPa 0,0 l/m 0 min 0 min 0 W/m 0,0 km/h (0 Bft) 100,00 %
10.05.2020 04:56 14,0 C 11,7 C 11,7 C 85 % 1006,7 hPa 0,0 l/m 0 min 0 min 0 W/m 0,0 km/h (0 Bft) 97,87 %
10.05.2020 04:58 14,0 C 11,7 C 11,7 C 85 % 1006,7 hPa 0,0 l/m 0 min 0 min 0 W/m 0,0 km/h (0 Bft) 100,00 %
10.05.2020 05:00 13,9 C 11,7 C 11,1 C 85 % 1006,7 hPa 0,0 l/m 0 min 0 min 0 W/m 0,0 km/h (0 Bft) 100,00 %
10.05.2020 05:02 13,9 C 11,7 C 11,1 C 85 % 1006,7 hPa 0,0 l/m 0 min 0 min 0 W/m 0,0 km/h (0 Bft) 100,00 %
10.05.2020 05:04 13,8 C 11,1 C 11,1 C 85 % 1006,7 hPa 0,0 l/m 0 min 0 min 0 W/m 0,0 km/h (0 Bft) 100,00 %
10.05.2020 05:06 13,8 C 11,7 C 11,1 C 85 % 1006,6 hPa 0,0 l/m 0 min 0 min 0 W/m 0,0 km/h (0 Bft) 95,74 %
10.05.2020 05:08 13,8 C 11,7 C 11,1 C 85 % 1006,6 hPa 0,0 l/m 0 min 0 min 0 W/m 0,0 km/h (0 Bft) 100,00 %
10.05.2020 05:10 13,7 C 11,7 C 11,1 C 85 % 1006,6 hPa 0,0 l/m 0 min 0 min 0 W/m 0,0 km/h (0 Bft) 100,00 %
10.05.2020 05:12 13,7 C 11,7 C 11,1 C 85 % 1006,6 hPa 0,0 l/m 0 min 0 min 0 W/m 0,0 km/h (0 Bft) 97,87 %
10.05.2020 05:14 13,7 C 12,2 C 11,1 C 85 % 1006,6 hPa 0,0 l/m 0 min 0 min 0 W/m 0,0 km/h (0 Bft) 95,65 %
10.05.2020 05:16 13,7 C 12,2 C 11,1 C 85 % 1006,5 hPa 0,0 l/m 0 min 0 min 0 W/m 0,0 km/h (0 Bft) 93,62 %
10.05.2020 05:18 13,6 C 11,7 C 11,1 C 85 % 1006,5 hPa 0,0 l/m 0 min 0 min 0 W/m 0,0 km/h (0 Bft) 95,74 %
10.05.2020 05:20 13,6 C 11,7 C 11,1 C 86 % 1006,5 hPa 0,0 l/m 0 min 0 min 0 W/m 0,0 km/h (0 Bft) 95,74 %
10.05.2020 05:22 13,6 C 11,7 C 11,1 C 86 % 1006,5 hPa 0,0 l/m 0 min 0 min 0 W/m 0,0 km/h (0 Bft) 95,74 %
10.05.2020 05:24 13,5 C 11,7 C 11,1 C 86 % 1006,5 hPa 0,0 l/m 0 min 0 min 0 W/m 0,0 km/h (0 Bft) 95,65 %
10.05.2020 05:26 13,5 C 11,7 C 11,1 C 86 % 1006,4 hPa 0,0 l/m 0 min 0 min 0 W/m 0,0 km/h (0 Bft) 95,74 %
10.05.2020 05:28 13,4 C 11,7 C 11,1 C 86 % 1006,5 hPa 0,0 l/m 0 min 0 min 0 W/m 0,0 km/h (0 Bft) 95,74 %
10.05.2020 05:30 13,4 C 11,1 C 10,6 C 86 % 1006,5 hPa 0,0 l/m 0 min 0 min 0 W/m 0,0 km/h (0 Bft) 95,74 %
10.05.2020 05:32 13,4 C 11,1 C 10,6 C 86 % 1006,5 hPa 0,0 l/m 0 min 0 min 0 W/m 0,0 km/h (0 Bft) 95,74 %
10.05.2020 05:34 13,3 C 11,1 C 10,6 C 86 % 1006,5 hPa 0,0 l/m 0 min 0 min 0 W/m 0,0 km/h (0 Bft) 95,74 %
10.05.2020 05:36 13,3 C 11,7 C 10,6 C 86 % 1006,5 hPa 0,0 l/m 0 min 0 min 0 W/m 0,0 km/h (0 Bft) 91,30 %
10.05.2020 05:38 13,3 C 11,1 C 10,6 C 86 % 1006,4 hPa 0,0 l/m 0 min 0 min 0 W/m 0,0 km/h (0 Bft) 93,62 %
10.05.2020 05:40 13,2 C 11,1 C 10,6 C 86 % 1006,4 hPa 0,0 l/m 0 min 0 min 0 W/m 0,0 km/h (0 Bft) 93,62 %
10.05.2020 05:42 13,2 C 11,1 C 10,6 C 86 % 1006,4 hPa 0,0 l/m 0 min 0 min 0 W/m 0,0 km/h (0 Bft) 95,74 %
10.05.2020 05:44 13,2 C 11,7 C 10,6 C 86 % 1006,4 hPa 0,0 l/m 0 min 0 min 0 W/m 0,0 km/h (0 Bft) 95,74 %
10.05.2020 05:46 13,2 C 11,7 C 11,1 C 86 % 1006,4 hPa 0,0 l/m 0 min 0 min 0 W/m 0,0 km/h (0 Bft) 93,62 %
10.05.2020 05:48 13,1 C 11,7 C 11,1 C 87 % 1006,4 hPa 0,0 l/m 0 min 0 min 5 W/m 0,0 km/h (0 Bft) 95,65 %
10.05.2020 05:50 13,1 C 11,7 C 11,1 C 87 % 1006,4 hPa 0,0 l/m 0 min 0 min 5 W/m 0,0 km/h (0 Bft) 95,74 %
10.05.2020 05:52 13,1 C 11,7 C 11,1 C 87 % 1006,3 hPa 0,0 l/m 0 min 0 min 2 W/m 0,0 km/h (0 Bft) 95,74 %
10.05.2020 05:54 13,1 C 12,2 C 11,1 C 87 % 1006,3 hPa 0,0 l/m 0 min 0 min 3 W/m 0,0 km/h (0 Bft) 93,62 %
10.05.2020 05:56 13,1 C 12,2 C 11,7 C 88 % 1006,3 hPa 0,0 l/m 0 min 0 min 5 W/m 0,0 km/h (0 Bft) 95,74 %
10.05.2020 05:58 13,1 C 12,2 C 11,7 C 88 % 1006,3 hPa 0,0 l/m 0 min 0 min 5 W/m 0,0 km/h (0 Bft) 95,74 %
10.05.2020 06:00 13,0 C 12,2 C 11,7 C 88 % 1006,3 hPa 0,0 l/m 0 min 0 min 5 W/m 3,2 km/h (1 Bft) 95,65 %
10.05.2020 06:02 13,0 C 12,2 C 11,7 C 88 % 1006,3 hPa 0,0 l/m 0 min 0 min 7 W/m 0,0 km/h (0 Bft) 93,62 %
10.05.2020 06:04 13,0 C 12,2 C 11,7 C 88 % 1006,3 hPa 0,0 l/m 0 min 0 min 9 W/m 3,2 km/h (1 Bft) 100,00 %
10.05.2020 06:08 13,0 C 12,2 C 11,7 C 89 % 1006,3 hPa 0,0 l/m 0 min 0 min 11 W/m 0,0 km/h (0 Bft) 98,94 %
10.05.2020 06:10 13,0 C 12,2 C 11,7 C 89 % 1006,3 hPa 0,0 l/m 0 min 0 min 12 W/m 0,0 km/h (0 Bft) 100,00 %
10.05.2020 06:12 13,0 C 12,2 C 11,7 C 89 % 1006,3 hPa 0,0 l/m 0 min 0 min 13 W/m 3,2 km/h (1 Bft) 100,00 %
10.05.2020 06:14 13,0 C 12,2 C 12,2 C 89 % 1006,3 hPa 0,0 l/m 0 min 0 min 15 W/m 12,9 km/h (3 Bft) 97,87 %
10.05.2020 06:16 13,0 C 12,8 C 12,2 C 89 % 1006,3 hPa 0,0 l/m 0 min 0 min 17 W/m 0,0 km/h (0 Bft) 100,00 %
10.05.2020 06:18 13,0 C 12,8 C 12,2 C 89 % 1006,3 hPa 0,0 l/m 0 min 0 min 18 W/m 0,0 km/h (0 Bft) 97,87 %
10.05.2020 06:20 13,0 C 12,8 C 12,2 C 89 % 1006,3 hPa 0,0 l/m 0 min 0 min 19 W/m 0,0 km/h (0 Bft) 100,00 %
10.05.2020 06:22 13,0 C 12,8 C 12,2 C 90 % 1006,3 hPa 0,0 l/m 0 min 0 min 19 W/m 3,2 km/h (1 Bft) 100,00 %
10.05.2020 06:24 13,0 C 12,8 C 12,2 C 90 % 1006,3 hPa 0,0 l/m 0 min 0 min 21 W/m 0,0 km/h (0 Bft) 100,00 %
10.05.2020 06:26 13,1 C 12,8 C 12,2 C 90 % 1006,3 hPa 0,0 l/m 0 min 0 min 22 W/m 0,0 km/h (0 Bft) 100,00 %
10.05.2020 06:28 13,0 C 12,8 C 12,2 C 90 % 1006,3 hPa 0,0 l/m 0 min 0 min 23 W/m 0,0 km/h (0 Bft) 100,00 %
10.05.2020 06:30 13,1 C 12,8 C 12,2 C 90 % 1006,3 hPa 0,0 l/m 0 min 0 min 25 W/m 0,0 km/h (0 Bft) 100,00 %
10.05.2020 06:32 13,1 C 12,8 C 12,2 C 90 % 1006,3 hPa 0,0 l/m 0 min 0 min 26 W/m 0,0 km/h (0 Bft) 97,87 %
10.05.2020 06:34 13,1 C 12,8 C 12,2 C 90 % 1006,2 hPa 0,0 l/m 0 min 0 min 26 W/m 0,0 km/h (0 Bft) 100,00 %
10.05.2020 06:36 13,1 C 12,8 C 12,2 C 90 % 1006,3 hPa 0,0 l/m 0 min 0 min 28 W/m 0,0 km/h (0 Bft) 100,00 %
10.05.2020 06:38 13,1 C 12,8 C 12,2 C 90 % 1006,3 hPa 0,0 l/m 0 min 0 min 28 W/m 0,0 km/h (0 Bft) 100,00 %
10.05.2020 06:40 13,1 C 12,8 C 12,2 C 90 % 1006,3 hPa 0,0 l/m 0 min 0 min 30 W/m 0,0 km/h (0 Bft) 100,00 %
10.05.2020 06:42 13,1 C 12,8 C 12,2 C 90 % 1006,3 hPa 0,0 l/m 0 min 0 min 30 W/m 0,0 km/h (0 Bft) 100,00 %
10.05.2020 06:44 13,1 C 12,8 C 12,2 C 90 % 1006,3 hPa 0,0 l/m 0 min 0 min 30 W/m 0,0 km/h (0 Bft) 100,00 %
10.05.2020 06:46 13,2 C 12,8 C 12,2 C 90 % 1006,3 hPa 0,0 l/m 0 min 0 min 31 W/m 0,0 km/h (0 Bft) 100,00 %
10.05.2020 06:48 13,2 C 12,8 C 12,2 C 90 % 1006,3 hPa 0,0 l/m 0 min 0 min 32 W/m 0,0 km/h (0 Bft) 100,00 %
10.05.2020 06:50 13,2 C 12,8 C 12,2 C 90 % 1006,3 hPa 0,0 l/m 0 min 0 min 33 W/m 0,0 km/h (0 Bft) 97,87 %
10.05.2020 06:52 13,2 C 12,8 C 12,2 C 89 % 1006,3 hPa 0,0 l/m 0 min 0 min 33 W/m 0,0 km/h (0 Bft) 97,87 %
10.05.2020 06:54 13,2 C 12,8 C 12,2 C 89 % 1006,3 hPa 0,0 l/m 0 min 0 min 35 W/m 0,0 km/h (0 Bft) 100,00 %
10.05.2020 06:56 13,2 C 13,3 C 12,2 C 89 % 1006,3 hPa 0,0 l/m 0 min 0 min 37 W/m 0,0 km/h (0 Bft) 97,87 %
10.05.2020 06:58 13,2 C 13,3 C 12,8 C 89 % 1006,3 hPa 0,0 l/m 0 min 0 min 39 W/m 0,0 km/h (0 Bft) 100,00 %
10.05.2020 07:00 13,3 C 13,3 C 12,8 C 89 % 1006,3 hPa 0,0 l/m 0 min 0 min 41 W/m 3,2 km/h (1 Bft) 100,00 %
10.05.2020 07:02 13,3 C 13,3 C 12,8 C 90 % 1006,3 hPa 0,0 l/m 0 min 0 min 44 W/m 3,2 km/h (1 Bft) 100,00 %
10.05.2020 07:04 13,3 C 13,3 C 12,8 C 90 % 1006,3 hPa 0,0 l/m 0 min 0 min 47 W/m 3,2 km/h (1 Bft) 100,00 %
10.05.2020 07:06 13,3 C 13,3 C 12,8 C 89 % 1006,3 hPa 0,0 l/m 0 min 0 min 49 W/m 0,0 km/h (0 Bft) 100,00 %
10.05.2020 07:08 13,3 C 13,3 C 12,8 C 89 % 1006,2 hPa 0,0 l/m 0 min 0 min 52 W/m 3,2 km/h (1 Bft) 100,00 %
10.05.2020 07:10 13,4 C 13,3 C 12,8 C 89 % 1006,2 hPa 0,0 l/m 0 min 0 min 54 W/m 3,2 km/h (1 Bft) 100,00 %
10.05.2020 07:12 13,4 C 13,3 C 12,8 C 89 % 1006,3 hPa 0,0 l/m 0 min 0 min 57 W/m 3,2 km/h (1 Bft) 100,00 %
10.05.2020 07:14 13,4 C 13,3 C 12,8 C 89 % 1006,3 hPa 0,0 l/m 0 min 0 min 61 W/m 0,0 km/h (0 Bft) 100,00 %
10.05.2020 07:16 13,4 C 13,3 C 12,8 C 89 % 1006,2 hPa 0,0 l/m 0 min 0 min 66 W/m 0,0 km/h (0 Bft) 100,00 %
10.05.2020 07:18 13,4 C 13,9 C 12,8 C 89 % 1006,2 hPa 0,0 l/m 0 min 0 min 69 W/m 3,2 km/h (1 Bft) 100,00 %
10.05.2020 07:20 13,5 C 13,9 C 12,8 C 89 % 1006,2 hPa 0,0 l/m 0 min 0 min 73 W/m 0,0 km/h (0 Bft) 100,00 %
10.05.2020 07:22 13,5 C 13,9 C 13,3 C 89 % 1006,2 hPa 0,0 l/m 0 min 0 min 78 W/m 0,0 km/h (0 Bft) 100,00 %
10.05.2020 07:24 13,5 C 13,9 C 13,3 C 89 % 1006,2 hPa 0,0 l/m 0 min 0 min 83 W/m 0,0 km/h (0 Bft) 100,00 %
10.05.2020 07:26 13,6 C 13,9 C 13,3 C 89 % 1006,1 hPa 0,0 l/m 0 min 0 min 84 W/m 0,0 km/h (0 Bft) 100,00 %
10.05.2020 07:28 13,6 C 13,9 C 13,3 C 89 % 1006,1 hPa 0,0 l/m 0 min 0 min 83 W/m 0,0 km/h (0 Bft) 100,00 %
10.05.2020 07:30 13,7 C 14,4 C 13,3 C 89 % 1006,1 hPa 0,0 l/m 0 min 0 min 83 W/m 6,4 km/h (2 Bft) 100,00 %
10.05.2020 07:32 13,7 C 14,4 C 13,9 C 89 % 1006,1 hPa 0,0 l/m 0 min 0 min 84 W/m 6,4 km/h (2 Bft) 95,65 %
10.05.2020 07:34 13,7 C 14,4 C 13,9 C 89 % 1006,2 hPa 0,0 l/m 0 min 0 min 82 W/m 12,9 km/h (3 Bft) 100,00 %
10.05.2020 07:36 13,8 C 14,4 C 13,9 C 89 % 1006,2 hPa 0,0 l/m 0 min 0 min 76 W/m 6,4 km/h (2 Bft) 97,87 %
10.05.2020 07:38 13,8 C 14,4 C 13,9 C 89 % 1006,2 hPa 0,0 l/m 0 min 0 min 75 W/m 6,4 km/h (2 Bft) 97,87 %
10.05.2020 07:40 13,9 C 14,4 C 13,9 C 89 % 1006,2 hPa 0,0 l/m 0 min 0 min 73 W/m 6,4 km/h (2 Bft) 95,74 %
10.05.2020 07:42 13,9 C 14,4 C 13,9 C 89 % 1006,2 hPa 0,0 l/m 0 min 0 min 71 W/m 6,4 km/h (2 Bft) 95,74 %
10.05.2020 07:44 14,0 C 14,4 C 13,9 C 89 % 1006,3 hPa 0,0 l/m 0 min 0 min 71 W/m 6,4 km/h (2 Bft) 95,65 %
10.05.2020 07:46 14,1 C 14,4 C 13,9 C 89 % 1006,2 hPa 0,0 l/m 0 min 0 min 77 W/m 6,4 km/h (2 Bft) 95,74 %
10.05.2020 07:48 14,1 C 14,4 C 13,9 C 89 % 1006,3 hPa 0,0 l/m 0 min 0 min 84 W/m 6,4 km/h (2 Bft) 97,87 %
10.05.2020 07:50 14,1 C 15,0 C 13,9 C 89 % 1006,3 hPa 0,0 l/m 0 min 0 min 90 W/m 6,4 km/h (2 Bft) 97,87 %
10.05.2020 07:52 14,2 C 15,0 C 13,9 C 89 % 1006,2 hPa 0,0 l/m 0 min 0 min 99 W/m 12,9 km/h (3 Bft) 95,74 %
10.05.2020 07:54 14,3 C 15,0 C 14,4 C 88 % 1006,2 hPa 0,0 l/m 0 min 0 min 105 W/m 6,4 km/h (2 Bft) 93,62 %
10.05.2020 07:56 14,3 C 15,0 C 14,4 C 88 % 1006,2 hPa 0,0 l/m 0 min 0 min 107 W/m 12,9 km/h (3 Bft) 95,65 %
10.05.2020 07:58 14,3 C 15,0 C 14,4 C 88 % 1006,3 hPa 0,0 l/m 0 min 0 min 108 W/m 6,4 km/h (2 Bft) 95,74 %
10.05.2020 08:00 14,3 C 15,6 C 14,4 C 88 % 1006,2 hPa 0,0 l/m 0 min 0 min 106 W/m 3,2 km/h (1 Bft) 95,74 %
10.05.2020 08:02 14,3 C 15,0 C 14,4 C 88 % 1006,2 hPa 0,0 l/m 0 min 0 min 101 W/m 3,2 km/h (1 Bft) 93,62 %
10.05.2020 08:04 14,3 C 15,6 C 14,4 C 87 % 1006,2 hPa 0,0 l/m 0 min 0 min 99 W/m 3,2 km/h (1 Bft) 93,62 %
10.05.2020 08:06 14,4 C 15,6 C 14,4 C 87 % 1006,3 hPa 0,0 l/m 0 min 0 min 102 W/m 6,4 km/h (2 Bft) 93,62 %
10.05.2020 08:08 14,5 C 15,6 C 14,4 C 87 % 1006,3 hPa 0,0 l/m 0 min 0 min 105 W/m 0,0 km/h (0 Bft) 93,48 %
10.05.2020 08:10 14,6 C 15,6 C 15,0 C 87 % 1006,2 hPa 0,0 l/m 0 min 0 min 108 W/m 6,4 km/h (2 Bft) 93,62 %
10.05.2020 08:12 14,6 C 15,6 C 15,0 C 87 % 1006,2 hPa 0,0 l/m 0 min 0 min 112 W/m 12,9 km/h (3 Bft) 93,62 %
10.05.2020 08:14 14,7 C 15,6 C 15,0 C 87 % 1006,2 hPa 0,0 l/m 0 min 0 min 117 W/m 12,9 km/h (3 Bft) 91,49 %
10.05.2020 08:16 14,7 C 15,6 C 15,0 C 86 % 1006,3 hPa 0,0 l/m 0 min 0 min 119 W/m 12,9 km/h (3 Bft) 93,62 %
10.05.2020 08:18 14,8 C 15,6 C 15,0 C 86 % 1006,3 hPa 0,0 l/m 0 min 0 min 122 W/m 12,9 km/h (3 Bft) 91,49 %
10.05.2020 08:20 14,8 C 15,6 C 15,0 C 86 % 1006,3 hPa 0,0 l/m 0 min 0 min 128 W/m 6,4 km/h (2 Bft) 91,30 %
10.05.2020 08:22 14,9 C 15,6 C 15,0 C 86 % 1006,3 hPa 0,0 l/m 0 min 0 min 134 W/m 12,9 km/h (3 Bft) 93,62 %
10.05.2020 08:24 14,9 C 15,6 C 15,0 C 86 % 1006,3 hPa 0,0 l/m 0 min 0 min 138 W/m 6,4 km/h (2 Bft) 90,00 %
10.05.2020 08:26 15,0 C 15,6 C 15,0 C 86 % 1006,3 hPa 0,0 l/m 0 min 0 min 139 W/m 6,4 km/h (2 Bft) 93,62 %
10.05.2020 08:28 15,1 C 16,1 C 15,0 C 86 % 1006,3 hPa 0,0 l/m 0 min 0 min 139 W/m 6,4 km/h (2 Bft) 93,62 %
10.05.2020 08:30 15,1 C 16,1 C 15,0 C 86 % 1006,3 hPa 0,0 l/m 0 min 0 min 139 W/m 12,9 km/h (3 Bft) 91,30 %
10.05.2020 08:32 15,2 C 16,1 C 15,6 C 85 % 1006,3 hPa 0,0 l/m 0 min 0 min 139 W/m 6,4 km/h (2 Bft) 93,62 %
10.05.2020 08:34 15,2 C 16,1 C 15,6 C 85 % 1006,3 hPa 0,0 l/m 0 min 0 min 139 W/m 6,4 km/h (2 Bft) 95,74 %
10.05.2020 08:36 15,3 C 16,1 C 15,6 C 85 % 1006,3 hPa 0,0 l/m 0 min 0 min 140 W/m 6,4 km/h (2 Bft) 95,74 %
10.05.2020 08:38 15,3 C 16,7 C 15,6 C 85 % 1006,3 hPa 0,0 l/m 0 min 0 min 142 W/m 3,2 km/h (1 Bft) 95,74 %
10.05.2020 08:40 15,4 C 16,1 C 15,6 C 85 % 1006,3 hPa 0,0 l/m 0 min 0 min 142 W/m 6,4 km/h (2 Bft) 93,62 %
10.05.2020 08:42 15,4 C 16,7 C 15,6 C 85 % 1006,3 hPa 0,0 l/m 0 min 0 min 144 W/m 3,2 km/h (1 Bft) 97,14 %
10.05.2020 08:44 15,5 C 16,7 C 16,1 C 85 % 1006,2 hPa 0,0 l/m 0 min 0 min 146 W/m 3,2 km/h (1 Bft) 98,28 %
10.05.2020 08:46 15,5 C 16,7 C 16,1 C 85 % 1006,2 hPa 0,0 l/m 0 min 0 min 146 W/m 3,2 km/h (1 Bft) 100,00 %
10.05.2020 08:48 15,6 C 16,7 C 16,1 C 85 % 1006,2 hPa 0,0 l/m 0 min 0 min 146 W/m 6,4 km/h (2 Bft) 100,00 %
10.05.2020 08:50 15,6 C 16,7 C 16,1 C 85 % 1006,2 hPa 0,0 l/m 0 min 0 min 142 W/m 3,2 km/h (1 Bft) 97,87 %
10.05.2020 08:52 15,7 C 16,7 C 16,1 C 85 % 1006,2 hPa 0,0 l/m 0 min 0 min 139 W/m 12,9 km/h (3 Bft) 100,00 %
10.05.2020 08:54 15,7 C 16,7 C 16,1 C 84 % 1006,1 hPa 0,0 l/m 0 min 0 min 135 W/m 12,9 km/h (3 Bft) 100,00 %
10.05.2020 08:56 15,8 C 16,7 C 16,1 C 84 % 1006,1 hPa 0,0 l/m 0 min 0 min 138 W/m 6,4 km/h (2 Bft) 100,00 %
10.05.2020 08:58 15,8 C 16,7 C 16,1 C 84 % 1006,1 hPa 0,0 l/m 0 min 0 min 140 W/m 0,0 km/h (0 Bft) 100,00 %
10.05.2020 09:00 15,9 C 16,7 C 16,1 C 84 % 1006,1 hPa 0,0 l/m 0 min 0 min 141 W/m 3,2 km/h (1 Bft) 97,87 %
10.05.2020 09:02 15,9 C 16,7 C 16,1 C 84 % 1006,1 hPa 0,0 l/m 0 min 0 min 143 W/m 0,0 km/h (0 Bft) 100,00 %
10.05.2020 09:04 15,9 C 16,7 C 16,1 C 84 % 1006,1 hPa 0,0 l/m 0 min 0 min 144 W/m 3,2 km/h (1 Bft) 100,00 %
10.05.2020 09:06 16,0 C 16,7 C 16,1 C 84 % 1006,1 hPa 0,0 l/m 0 min 0 min 144 W/m 16,1 km/h (3 Bft) 100,00 %
10.05.2020 09:08 16,1 C 16,7 C 16,1 C 83 % 1006,1 hPa 0,0 l/m 0 min 0 min 144 W/m 6,4 km/h (2 Bft) 100,00 %
10.05.2020 09:10 16,1 C 16,7 C 16,1 C 83 % 1006,1 hPa 0,0 l/m 0 min 0 min 152 W/m 3,2 km/h (1 Bft) 100,00 %
10.05.2020 09:12 16,1 C 16,7 C 16,1 C 83 % 1006,1 hPa 0,0 l/m 0 min 0 min 161 W/m 12,9 km/h (3 Bft) 100,00 %
10.05.2020 09:14 16,2 C 16,7 C 16,1 C 83 % 1006,0 hPa 0,0 l/m 0 min 0 min 171 W/m 6,4 km/h (2 Bft) 97,14 %
10.05.2020 09:16 16,2 C 17,2 C 16,7 C 82 % 1006,0 hPa 0,0 l/m 0 min 0 min 173 W/m 6,4 km/h (2 Bft) 100,00 %
10.05.2020 09:18 16,3 C 17,2 C 16,7 C 83 % 1006,0 hPa 0,0 l/m 0 min 0 min 168 W/m 6,4 km/h (2 Bft) 95,74 %
10.05.2020 09:20 16,3 C 17,2 C 16,7 C 83 % 1006,0 hPa 0,0 l/m 0 min 0 min 167 W/m 6,4 km/h (2 Bft) 97,87 %
10.05.2020 09:22 16,4 C 17,2 C 16,7 C 83 % 1005,9 hPa 0,0 l/m 0 min 0 min 168 W/m 6,4 km/h (2 Bft) 100,00 %
10.05.2020 09:24 16,4 C 17,2 C 16,7 C 83 % 1005,9 hPa 0,0 l/m 0 min 0 min 166 W/m 6,4 km/h (2 Bft) 100,00 %
10.05.2020 09:26 16,5 C 17,2 C 16,7 C 82 % 1005,8 hPa 0,0 l/m 0 min 0 min 167 W/m 6,4 km/h (2 Bft) 100,00 %
10.05.2020 09:28 16,6 C 17,2 C 16,7 C 82 % 1005,8 hPa 0,0 l/m 0 min 0 min 172 W/m 6,4 km/h (2 Bft) 100,00 %
10.05.2020 09:30 16,6 C 17,8 C 16,7 C 81 % 1005,9 hPa 0,0 l/m 0 min 0 min 183 W/m 6,4 km/h (2 Bft) 100,00 %
10.05.2020 09:32 16,6 C 17,2 C 16,7 C 81 % 1005,9 hPa 0,0 l/m 0 min 0 min 198 W/m 19,3 km/h (3 Bft) 100,00 %
10.05.2020 09:34 16,6 C 17,2 C 16,7 C 80 % 1005,8 hPa 0,0 l/m 0 min 0 min 221 W/m 12,9 km/h (3 Bft) 100,00 %
10.05.2020 09:36 16,7 C 17,8 C 17,2 C 80 % 1005,9 hPa 0,0 l/m 0 min 0 min 249 W/m 16,1 km/h (3 Bft) 97,87 %
10.05.2020 09:38 16,7 C 17,8 C 17,8 C 80 % 1005,9 hPa 0,0 l/m 2 min 0 min 281 W/m 19,3 km/h (3 Bft) 97,87 %
10.05.2020 09:40 16,8 C 18,3 C 17,8 C 80 % 1005,9 hPa 0,0 l/m 2 min 0 min 295 W/m 22,5 km/h (4 Bft) 100,00 %
10.05.2020 09:42 16,8 C 18,3 C 18,3 C 79 % 1005,9 hPa 0,0 l/m 2 min 0 min 329 W/m 19,3 km/h (3 Bft) 100,00 %
10.05.2020 09:44 16,9 C 19,4 C 19,4 C 79 % 1006,0 hPa 0,0 l/m 2 min 0 min 436 W/m 12,9 km/h (3 Bft) 100,00 %
10.05.2020 09:46 17,0 C 20,0 C 20,0 C 79 % 1005,9 hPa 0,0 l/m 2 min 0 min 393 W/m 6,4 km/h (2 Bft) 100,00 %
10.05.2020 09:48 17,1 C 20,0 C 20,6 C 78 % 1006,0 hPa 0,0 l/m 2 min 0 min 417 W/m 12,9 km/h (3 Bft) 100,00 %
10.05.2020 09:50 17,1 C 20,0 C 20,6 C 78 % 1006,0 hPa 0,0 l/m 2 min 0 min 372 W/m 16,1 km/h (3 Bft) 100,00 %
10.05.2020 09:52 17,2 C 20,0 C 20,6 C 77 % 1005,9 hPa 0,0 l/m 2 min 0 min 384 W/m 16,1 km/h (3 Bft) 100,00 %
10.05.2020 09:54 17,3 C 20,0 C 20,6 C 77 % 1006,0 hPa 0,0 l/m 2 min 0 min 359 W/m 16,1 km/h (3 Bft) 100,00 %
10.05.2020 09:56 17,4 C 20,0 C 20,6 C 76 % 1006,0 hPa 0,0 l/m 2 min 0 min 348 W/m 16,1 km/h (3 Bft) 100,00 %
10.05.2020 09:58 17,5 C 19,4 C 20,0 C 76 % 1005,9 hPa 0,0 l/m 2 min 0 min 324 W/m 16,1 km/h (3 Bft) 100,00 %
10.05.2020 10:00 17,6 C 20,0 C 20,6 C 76 % 1005,8 hPa 0,0 l/m 2 min 0 min 389 W/m 12,9 km/h (3 Bft) 97,87 %
10.05.2020 10:02 17,7 C 20,6 C 21,7 C 76 % 1005,8 hPa 0,0 l/m 2 min 0 min 504 W/m 19,3 km/h (3 Bft) 100,00 %
10.05.2020 10:04 17,8 C 21,1 C 22,8 C 75 % 1005,9 hPa 0,0 l/m 2 min 0 min 596 W/m 16,1 km/h (3 Bft) 100,00 %
10.05.2020 10:06 17,9 C 21,1 C 22,2 C 75 % 1005,9 hPa 0,0 l/m 2 min 0 min 517 W/m 16,1 km/h (3 Bft) 97,87 %
10.05.2020 10:08 18,0 C 21,7 C 22,8 C 75 % 1005,8 hPa 0,0 l/m 2 min 0 min 443 W/m 16,1 km/h (3 Bft) 100,00 %
10.05.2020 10:10 18,2 C 22,2 C 23,9 C 75 % 1005,8 hPa 0,0 l/m 2 min 0 min 654 W/m 12,9 km/h (3 Bft) 100,00 %
10.05.2020 10:12 18,3 C 21,7 C 22,8 C 74 % 1005,8 hPa 0,0 l/m 2 min 0 min 573 W/m 19,3 km/h (3 Bft) 100,00 %
10.05.2020 10:14 18,4 C 20,6 C 21,1 C 73 % 1005,8 hPa 0,0 l/m 2 min 0 min 376 W/m 16,1 km/h (3 Bft) 100,00 %
10.05.2020 10:16 18,4 C 20,6 C 21,1 C 73 % 1005,8 hPa 0,0 l/m 2 min 0 min 374 W/m 12,9 km/h (3 Bft) 97,87 %
10.05.2020 10:18 18,6 C 21,7 C 22,2 C 73 % 1005,7 hPa 0,0 l/m 2 min 0 min 461 W/m 12,9 km/h (3 Bft) 100,00 %
10.05.2020 10:20 18,6 C 22,2 C 23,3 C 73 % 1005,7 hPa 0,0 l/m 2 min 0 min 591 W/m 12,9 km/h (3 Bft) 100,00 %
10.05.2020 10:22 18,7 C 22,8 C 23,3 C 73 % 1005,7 hPa 0,0 l/m 2 min 0 min 617 W/m 6,4 km/h (2 Bft) 100,00 %
10.05.2020 10:24 18,8 C 21,7 C 22,8 C 72 % 1005,7 hPa 0,0 l/m 2 min 0 min 411 W/m 12,9 km/h (3 Bft) 100,00 %
10.05.2020 10:26 18,9 C 21,1 C 21,7 C 71 % 1005,6 hPa 0,0 l/m 2 min 0 min 341 W/m 16,1 km/h (3 Bft) 100,00 %
10.05.2020 10:28 19,0 C 21,7 C 22,2 C 71 % 1005,7 hPa 0,0 l/m 2 min 0 min 416 W/m 16,1 km/h (3 Bft) 100,00 %
10.05.2020 10:30 19,1 C 22,8 C 23,3 C 70 % 1005,7 hPa 0,0 l/m 2 min 0 min 455 W/m 12,9 km/h (3 Bft) 95,74 %
10.05.2020 10:32 19,1 C 22,8 C 23,3 C 70 % 1005,7 hPa 0,0 l/m 2 min 0 min 445 W/m 6,4 km/h (2 Bft) 97,87 %
10.05.2020 10:34 19,2 C 24,4 C 26,1 C 70 % 1005,8 hPa 0,0 l/m 2 min 0 min 656 W/m 6,4 km/h (2 Bft) 97,87 %
10.05.2020 10:36 19,4 C 25,6 C 27,2 C 72 % 1005,8 hPa 0,0 l/m 2 min 0 min 927 W/m 6,4 km/h (2 Bft) 95,74 %
10.05.2020 10:38 19,6 C 24,4 C 26,7 C 70 % 1005,8 hPa 0,0 l/m 2 min 0 min 932 W/m 16,1 km/h (3 Bft) 97,83 %
10.05.2020 10:40 19,7 C 24,4 C 26,1 C 70 % 1005,8 hPa 0,0 l/m 2 min 0 min 676 W/m 12,9 km/h (3 Bft) 95,74 %
10.05.2020 10:42 19,8 C 24,4 C 26,7 C 69 % 1005,7 hPa 0,0 l/m 2 min 0 min 638 W/m 19,3 km/h (3 Bft) 95,74 %
10.05.2020 10:44 19,9 C 25,6 C 27,8 C 69 % 1005,8 hPa 0,0 l/m 2 min 0 min 686 W/m 6,4 km/h (2 Bft) 95,74 %
10.05.2020 10:46 20,1 C 23,9 C 25,6 C 68 % 1005,8 hPa 0,0 l/m 2 min 0 min 931 W/m 12,9 km/h (3 Bft) 93,62 %
10.05.2020 10:48 20,2 C 22,8 C 23,9 C 68 % 1005,7 hPa 0,0 l/m 2 min 0 min 339 W/m 6,4 km/h (2 Bft) 91,49 %
10.05.2020 10:50 20,2 C 22,2 C 22,8 C 67 % 1005,7 hPa 0,0 l/m 0 min 0 min 323 W/m 0,0 km/h (0 Bft) 95,65 %
10.05.2020 10:52 20,3 C 21,7 C 22,2 C 67 % 1005,7 hPa 0,0 l/m 0 min 0 min 321 W/m 12,9 km/h (3 Bft) 97,14 %
10.05.2020 10:54 20,3 C 21,1 C 21,7 C 66 % 1005,7 hPa 0,0 l/m 0 min 0 min 319 W/m 16,1 km/h (3 Bft) 93,22 %
10.05.2020 10:56 20,3 C 20,6 C 21,1 C 66 % 1005,7 hPa 0,0 l/m 0 min 0 min 306 W/m 12,9 km/h (3 Bft) 93,62 %
10.05.2020 10:58 20,3 C 21,1 C 20,6 C 66 % 1005,7 hPa 0,0 l/m 0 min 0 min 294 W/m 16,1 km/h (3 Bft) 93,62 %
10.05.2020 11:00 20,3 C 20,6 C 21,1 C 66 % 1005,7 hPa 0,0 l/m 0 min 0 min 294 W/m 12,9 km/h (3 Bft) 95,74 %
10.05.2020 11:02 20,3 C 21,1 C 21,1 C 66 % 1005,7 hPa 0,0 l/m 0 min 0 min 287 W/m 6,4 km/h (2 Bft) 95,65 %
10.05.2020 11:04 20,3 C 20,6 C 20,6 C 66 % 1005,6 hPa 0,0 l/m 0 min 0 min 263 W/m 12,9 km/h (3 Bft) 93,62 %
10.05.2020 11:06 20,3 C 20,6 C 20,6 C 66 % 1005,7 hPa 0,0 l/m 0 min 0 min 256 W/m 3,2 km/h (1 Bft) 91,49 %
10.05.2020 11:08 20,3 C 20,6 C 20,6 C 66 % 1005,6 hPa 0,0 l/m 0 min 0 min 272 W/m 6,4 km/h (2 Bft) 93,62 %
10.05.2020 11:10 20,3 C 21,1 C 20,0 C 66 % 1005,6 hPa 0,0 l/m 0 min 0 min 305 W/m 0,0 km/h (0 Bft) 97,14 %
10.05.2020 11:12 20,3 C 21,1 C 20,6 C 67 % 1005,7 hPa 0,0 l/m 0 min 0 min 336 W/m 3,2 km/h (1 Bft) 94,83 %
10.05.2020 11:14 20,3 C 21,7 C 20,6 C 67 % 1005,6 hPa 0,0 l/m 2 min 0 min 369 W/m 3,2 km/h (1 Bft) 93,62 %
10.05.2020 11:16 20,3 C 22,2 C 21,1 C 67 % 1005,6 hPa 0,0 l/m 2 min 0 min 388 W/m 3,2 km/h (1 Bft) 95,74 %
10.05.2020 11:18 20,3 C 22,2 C 21,1 C 67 % 1005,7 hPa 0,0 l/m 2 min 0 min 377 W/m 6,4 km/h (2 Bft) 95,74 %
10.05.2020 11:20 20,4 C 22,2 C 21,1 C 67 % 1005,6 hPa 0,0 l/m 2 min 0 min 362 W/m 3,2 km/h (1 Bft) 95,74 %
10.05.2020 11:22 20,4 C 22,8 C 21,7 C 67 % 1005,6 hPa 0,0 l/m 2 min 0 min 384 W/m 3,2 km/h (1 Bft) 93,62 %
10.05.2020 11:24 20,4 C 22,2 C 21,7 C 66 % 1005,6 hPa 0,0 l/m 2 min 0 min 385 W/m 12,9 km/h (3 Bft) 95,65 %
10.05.2020 11:26 20,4 C 21,7 C 21,1 C 66 % 1005,6 hPa 0,0 l/m 0 min 0 min 358 W/m 12,9 km/h (3 Bft) 95,74 %
10.05.2020 11:28 20,4 C 21,7 C 21,1 C 66 % 1005,6 hPa 0,0 l/m 0 min 0 min 351 W/m 12,9 km/h (3 Bft) 95,74 %
10.05.2020 11:30 20,4 C 21,7 C 21,1 C 66 % 1005,6 hPa 0,0 l/m 0 min 0 min 347 W/m 12,9 km/h (3 Bft) 97,87 %
10.05.2020 11:32 20,4 C 21,1 C 21,1 C 66 % 1005,6 hPa 0,0 l/m 0 min 0 min 331 W/m 6,4 km/h (2 Bft) 97,87 %
10.05.2020 11:34 20,4 C 21,1 C 21,1 C 66 % 1005,6 hPa 0,0 l/m 0 min 0 min 305 W/m 12,9 km/h (3 Bft) 97,87 %
10.05.2020 11:36 20,4 C 21,1 C 20,6 C 66 % 1005,6 hPa 0,0 l/m 0 min 0 min 291 W/m 12,9 km/h (3 Bft) 97,83 %
10.05.2020 11:38 20,5 C 21,1 C 20,6 C 68 % 1005,5 hPa 0,0 l/m 0 min 0 min 284 W/m 3,2 km/h (1 Bft) 97,87 %
10.05.2020 11:40 20,5 C 21,7 C 20,6 C 68 % 1005,5 hPa 0,0 l/m 0 min 0 min 276 W/m 0,0 km/h (0 Bft) 95,74 %
10.05.2020 11:42 20,5 C 21,1 C 20,6 C 68 % 1005,5 hPa 0,0 l/m 0 min 0 min 267 W/m 3,2 km/h (1 Bft) 97,87 %
10.05.2020 11:44 20,5 C 21,1 C 20,6 C 67 % 1005,5 hPa 0,0 l/m 0 min 0 min 265 W/m 6,4 km/h (2 Bft) 95,74 %
10.05.2020 11:46 20,5 C 21,1 C 20,6 C 67 % 1005,5 hPa 0,0 l/m 0 min 0 min 271 W/m 3,2 km/h (1 Bft) 95,74 %
10.05.2020 11:48 20,5 C 21,1 C 20,6 C 67 % 1005,5 hPa 0,0 l/m 0 min 0 min 279 W/m 6,4 km/h (2 Bft) 97,83 %
10.05.2020 11:50 20,5 C 21,1 C 20,0 C 67 % 1005,5 hPa 0,0 l/m 0 min 0 min 289 W/m 6,4 km/h (2 Bft) 97,87 %
10.05.2020 11:52 20,5 C 21,1 C 20,6 C 67 % 1005,5 hPa 0,0 l/m 0 min 0 min 288 W/m 0,0 km/h (0 Bft) 97,87 %
10.05.2020 11:54 20,6 C 21,7 C 20,6 C 68 % 1005,5 hPa 0,0 l/m 0 min 0 min 277 W/m 0,0 km/h (0 Bft) 97,87 %
10.05.2020 11:56 20,6 C 21,1 C 20,6 C 68 % 1005,4 hPa 0,0 l/m 0 min 0 min 261 W/m 0,0 km/h (0 Bft) 95,74 %
10.05.2020 11:58 20,6 C 21,7 C 20,6 C 68 % 1005,4 hPa 0,0 l/m 0 min 0 min 252 W/m 0,0 km/h (0 Bft) 97,87 %
10.05.2020 12:00 20,6 C 21,1 C 20,6 C 68 % 1005,5 hPa 0,0 l/m 0 min 0 min 254 W/m 0,0 km/h (0 Bft) 95,65 %
10.05.2020 12:02 20,6 C 21,1 C 20,6 C 68 % 1005,5 hPa 0,0 l/m 0 min 0 min 257 W/m 0,0 km/h (0 Bft) 97,87 %
10.05.2020 12:04 20,6 C 21,1 C 20,6 C 67 % 1005,5 hPa 0,0 l/m 0 min 0 min 256 W/m 6,4 km/h (2 Bft) 97,87 %
10.05.2020 12:08 20,6 C 21,1 C 20,0 C 66 % 1005,5 hPa 0,0 l/m 0 min 0 min 250 W/m 3,2 km/h (1 Bft) 97,87 %
10.05.2020 12:10 20,6 C 21,1 C 20,0 C 67 % 1005,4 hPa 0,0 l/m 0 min 0 min 250 W/m 3,2 km/h (1 Bft) 95,74 %
10.05.2020 12:12 20,6 C 21,1 C 20,6 C 69 % 1005,4 hPa 0,0 l/m 0 min 0 min 246 W/m 0,0 km/h (0 Bft) 100,00 %
10.05.2020 12:14 20,6 C 21,1 C 20,6 C 68 % 1005,4 hPa 0,0 l/m 0 min 0 min 240 W/m 0,0 km/h (0 Bft) 100,00 %
10.05.2020 12:16 20,6 C 21,1 C 20,0 C 67 % 1005,4 hPa 0,0 l/m 0 min 0 min 233 W/m 6,4 km/h (2 Bft) 97,87 %
10.05.2020 12:18 20,6 C 21,1 C 20,0 C 67 % 1005,3 hPa 0,0 l/m 0 min 0 min 230 W/m 0,0 km/h (0 Bft) 100,00 %
10.05.2020 12:20 20,6 C 21,7 C 20,0 C 67 % 1005,4 hPa 0,0 l/m 0 min 0 min 238 W/m 3,2 km/h (1 Bft) 100,00 %
10.05.2020 12:22 20,6 C 21,1 C 20,0 C 67 % 1005,3 hPa 0,0 l/m 0 min 0 min 247 W/m 3,2 km/h (1 Bft) 100,00 %
10.05.2020 12:24 20,6 C 21,1 C 20,0 C 68 % 1005,3 hPa 0,0 l/m 0 min 0 min 257 W/m 3,2 km/h (1 Bft) 100,00 %
10.05.2020 12:26 20,6 C 21,1 C 20,0 C 67 % 1005,3 hPa 0,0 l/m 0 min 0 min 266 W/m 6,4 km/h (2 Bft) 100,00 %
10.05.2020 12:28 20,6 C 21,1 C 20,0 C 67 % 1005,3 hPa 0,0 l/m 0 min 0 min 264 W/m 3,2 km/h (1 Bft) 100,00 %
10.05.2020 12:30 20,6 C 21,1 C 20,0 C 67 % 1005,3 hPa 0,0 l/m 0 min 0 min 257 W/m 12,9 km/h (3 Bft) 100,00 %
10.05.2020 12:32 20,6 C 20,6 C 20,0 C 67 % 1005,3 hPa 0,0 l/m 0 min 0 min 248 W/m 12,9 km/h (3 Bft) 100,00 %
10.05.2020 12:34 20,6 C 20,6 C 20,0 C 67 % 1005,3 hPa 0,0 l/m 0 min 0 min 241 W/m 3,2 km/h (1 Bft) 100,00 %
10.05.2020 12:36 20,6 C 20,6 C 20,0 C 66 % 1005,3 hPa 0,0 l/m 0 min 0 min 235 W/m 0,0 km/h (0 Bft) 100,00 %
10.05.2020 12:38 20,6 C 20,6 C 20,0 C 67 % 1005,3 hPa 0,0 l/m 0 min 0 min 231 W/m 3,2 km/h (1 Bft) 100,00 %
10.05.2020 12:40 20,6 C 20,6 C 20,0 C 67 % 1005,3 hPa 0,0 l/m 0 min 0 min 231 W/m 6,4 km/h (2 Bft) 97,87 %
10.05.2020 12:42 20,5 C 20,6 C 20,0 C 67 % 1005,3 hPa 0,0 l/m 0 min 0 min 240 W/m 3,2 km/h (1 Bft) 97,87 %
10.05.2020 12:44 20,5 C 20,6 C 20,0 C 67 % 1005,3 hPa 0,0 l/m 0 min 0 min 249 W/m 3,2 km/h (1 Bft) 97,87 %
10.05.2020 12:46 20,5 C 21,1 C 20,0 C 67 % 1005,3 hPa 0,0 l/m 0 min 0 min 255 W/m 0,0 km/h (0 Bft) 100,00 %
10.05.2020 12:48 20,5 C 21,1 C 20,0 C 67 % 1005,2 hPa 0,0 l/m 0 min 0 min 261 W/m 0,0 km/h (0 Bft) 100,00 %
10.05.2020 12:50 20,6 C 21,7 C 20,0 C 67 % 1005,2 hPa 0,0 l/m 0 min 0 min 262 W/m 12,9 km/h (3 Bft) 100,00 %
10.05.2020 12:52 20,6 C 21,1 C 20,6 C 67 % 1005,2 hPa 0,0 l/m 0 min 0 min 257 W/m 6,4 km/h (2 Bft) 100,00 %
10.05.2020 12:54 20,6 C 21,1 C 20,0 C 67 % 1005,2 hPa 0,0 l/m 0 min 0 min 247 W/m 0,0 km/h (0 Bft) 100,00 %
10.05.2020 12:56 20,6 C 21,1 C 20,0 C 67 % 1005,3 hPa 0,0 l/m 0 min 0 min 235 W/m 3,2 km/h (1 Bft) 100,00 %
10.05.2020 12:58 20,6 C 21,1 C 20,0 C 67 % 1005,3 hPa 0,0 l/m 0 min 0 min 224 W/m 3,2 km/h (1 Bft) 100,00 %
10.05.2020 13:00 20,6 C 21,1 C 20,0 C 67 % 1005,3 hPa 0,0 l/m 0 min 0 min 214 W/m 0,0 km/h (0 Bft) 97,87 %
10.05.2020 13:02 20,6 C 20,6 C 20,0 C 67 % 1005,3 hPa 0,0 l/m 0 min 0 min 210 W/m 6,4 km/h (2 Bft) 97,87 %
10.05.2020 13:04 20,6 C 21,1 C 20,0 C 66 % 1005,3 hPa 0,0 l/m 0 min 0 min 208 W/m 0,0 km/h (0 Bft) 97,87 %
10.05.2020 13:06 20,6 C 20,6 C 20,0 C 67 % 1005,4 hPa 0,0 l/m 0 min 0 min 209 W/m 6,4 km/h (2 Bft) 95,74 %
10.05.2020 13:08 20,6 C 21,1 C 20,0 C 67 % 1005,3 hPa 0,0 l/m 0 min 0 min 207 W/m 0,0 km/h (0 Bft) 97,87 %
10.05.2020 13:10 20,6 C 20,6 C 20,0 C 67 % 1005,3 hPa 0,0 l/m 0 min 0 min 199 W/m 6,4 km/h (2 Bft) 97,83 %
10.05.2020 13:12 20,6 C 20,6 C 20,0 C 66 % 1005,4 hPa 0,0 l/m 0 min 0 min 185 W/m 0,0 km/h (0 Bft) 97,87 %
10.05.2020 13:14 20,5 C 20,6 C 20,0 C 67 % 1005,4 hPa 0,0 l/m 0 min 0 min 173 W/m 0,0 km/h (0 Bft) 97,87 %
10.05.2020 13:16 20,6 C 20,0 C 20,0 C 67 % 1005,5 hPa 0,0 l/m 0 min 0 min 162 W/m 3,2 km/h (1 Bft) 97,87 %
10.05.2020 13:18 20,5 C 20,0 C 19,4 C 68 % 1005,5 hPa 0,0 l/m 0 min 0 min 155 W/m 0,0 km/h (0 Bft) 97,87 %
10.05.2020 13:20 20,5 C 20,0 C 19,4 C 68 % 1005,5 hPa 0,0 l/m 0 min 0 min 157 W/m 0,0 km/h (0 Bft) 97,14 %
10.05.2020 13:22 20,5 C 20,6 C 19,4 C 68 % 1005,5 hPa 0,0 l/m 0 min 0 min 166 W/m 3,2 km/h (1 Bft) 98,28 %
10.05.2020 13:24 20,5 C 20,6 C 20,0 C 69 % 1005,5 hPa 0,0 l/m 0 min 0 min 183 W/m 0,0 km/h (0 Bft) 93,62 %
10.05.2020 13:26 20,5 C 20,6 C 20,0 C 69 % 1005,5 hPa 0,0 l/m 0 min 0 min 204 W/m 0,0 km/h (0 Bft) 97,87 %
10.05.2020 13:28 20,5 C 21,1 C 20,0 C 69 % 1005,5 hPa 0,0 l/m 0 min 0 min 219 W/m 0,0 km/h (0 Bft) 97,87 %
10.05.2020 13:30 20,5 C 21,1 C 20,0 C 70 % 1005,4 hPa 0,0 l/m 0 min 0 min 225 W/m 0,0 km/h (0 Bft) 97,87 %
10.05.2020 13:32 20,6 C 21,1 C 20,0 C 70 % 1005,4 hPa 0,0 l/m 0 min 0 min 222 W/m 0,0 km/h (0 Bft) 97,83 %
10.05.2020 13:34 20,6 C 21,1 C 20,0 C 70 % 1005,4 hPa 0,0 l/m 0 min 0 min 212 W/m 0,0 km/h (0 Bft) 95,74 %
10.05.2020 13:36 20,6 C 21,1 C 20,0 C 70 % 1005,4 hPa 0,0 l/m 0 min 0 min 202 W/m 3,2 km/h (1 Bft) 95,74 %
10.05.2020 13:38 20,6 C 21,1 C 20,0 C 70 % 1005,4 hPa 0,0 l/m 0 min 0 min 186 W/m 3,2 km/h (1 Bft) 95,74 %
10.05.2020 13:40 20,6 C 20,6 C 19,4 C 68 % 1005,4 hPa 0,0 l/m 0 min 0 min 171 W/m 6,4 km/h (2 Bft) 97,87 %
10.05.2020 13:42 20,6 C 20,6 C 20,0 C 69 % 1005,4 hPa 0,0 l/m 0 min 0 min 160 W/m 0,0 km/h (0 Bft) 97,87 %
10.05.2020 13:44 20,6 C 20,6 C 19,4 C 70 % 1005,4 hPa 0,0 l/m 0 min 0 min 159 W/m 0,0 km/h (0 Bft) 95,65 %
10.05.2020 13:46 20,6 C 20,6 C 19,4 C 71 % 1005,4 hPa 0,0 l/m 0 min 2 min 167 W/m 0,0 km/h (0 Bft) 97,87 %
10.05.2020 13:48 20,6 C 20,0 C 19,4 C 70 % 1005,4 hPa 0,0 l/m 0 min 2 min 180 W/m 3,2 km/h (1 Bft) 97,87 %
10.05.2020 13:50 20,6 C 20,0 C 18,3 C 72 % 1005,4 hPa 0,0 l/m 0 min 2 min 193 W/m 0,0 km/h (0 Bft) 97,87 %
10.05.2020 13:52 20,6 C 18,9 C 18,3 C 72 % 1005,4 hPa 0,0 l/m 0 min 2 min 208 W/m 0,0 km/h (0 Bft) 97,87 %
10.05.2020 13:54 20,6 C 18,3 C 17,8 C 72 % 1005,4 hPa 0,0 l/m 0 min 2 min 213 W/m 0,0 km/h (0 Bft) 91,43 %
10.05.2020 13:56 20,6 C 17,8 C 17,2 C 73 % 1005,4 hPa 0,0 l/m 0 min 2 min 209 W/m 0,0 km/h (0 Bft) 98,28 %
10.05.2020 13:58 20,6 C 17,8 C 17,2 C 74 % 1005,4 hPa 0,0 l/m 0 min 2 min 207 W/m 0,0 km/h (0 Bft) 97,87 %
10.05.2020 14:00 20,6 C 17,8 C 17,2 C 76 % 1005,4 hPa 0,0 l/m 0 min 2 min 209 W/m 0,0 km/h (0 Bft) 97,14 %
10.05.2020 14:02 20,6 C 17,2 C 16,7 C 76 % 1005,4 hPa 0,0 l/m 0 min 2 min 215 W/m 0,0 km/h (0 Bft) 98,31 %
10.05.2020 14:04 20,6 C 17,2 C 16,7 C 76 % 1005,5 hPa 0,0 l/m 0 min 2 min 220 W/m 0,0 km/h (0 Bft) 97,87 %
10.05.2020 14:06 20,5 C 17,8 C 16,7 C 77 % 1005,4 hPa 0,0 l/m 0 min 2 min 219 W/m 0,0 km/h (0 Bft) 97,14 %
10.05.2020 14:08 20,6 C 17,8 C 16,7 C 77 % 1005,4 hPa 0,0 l/m 0 min 2 min 213 W/m 0,0 km/h (0 Bft) 98,28 %
10.05.2020 14:10 20,5 C 17,8 C 16,7 C 77 % 1005,3 hPa 0,0 l/m 0 min 2 min 216 W/m 0,0 km/h (0 Bft) 93,62 %
10.05.2020 14:12 20,4 C 17,8 C 16,7 C 77 % 1005,3 hPa 0,0 l/m 0 min 2 min 224 W/m 0,0 km/h (0 Bft) 97,87 %
10.05.2020 14:14 20,4 C 18,3 C 16,7 C 76 % 1005,3 hPa 0,0 l/m 0 min 2 min 233 W/m 0,0 km/h (0 Bft) 95,74 %
10.05.2020 14:16 20,4 C 17,8 C 16,7 C 76 % 1005,3 hPa 0,0 l/m 0 min 2 min 239 W/m 0,0 km/h (0 Bft) 97,87 %
10.05.2020 14:18 20,4 C 18,3 C 16,7 C 76 % 1005,3 hPa 0,0 l/m 0 min 2 min 232 W/m 0,0 km/h (0 Bft) 97,83 %
10.05.2020 14:20 20,4 C 18,3 C 16,7 C 75 % 1005,3 hPa 0,0 l/m 0 min 2 min 218 W/m 0,0 km/h (0 Bft) 95,74 %
10.05.2020 14:22 20,4 C 18,3 C 16,7 C 75 % 1005,3 hPa 0,0 l/m 0 min 2 min 207 W/m 0,0 km/h (0 Bft) 95,74 %
10.05.2020 14:24 20,4 C 18,9 C 16,7 C 74 % 1005,3 hPa 0,0 l/m 0 min 2 min 200 W/m 0,0 km/h (0 Bft) 95,74 %
10.05.2020 14:26 20,4 C 19,4 C 16,7 C 74 % 1005,3 hPa 0,0 l/m 0 min 0 min 197 W/m 0,0 km/h (0 Bft) 97,87 %
10.05.2020 14:28 20,4 C 19,4 C 16,7 C 74 % 1005,2 hPa 0,0 l/m 0 min 0 min 190 W/m 0,0 km/h (0 Bft) 95,74 %
10.05.2020 14:30 20,3 C 19,4 C 16,7 C 74 % 1005,3 hPa 0,0 l/m 0 min 0 min 186 W/m 0,0 km/h (0 Bft) 97,83 %
10.05.2020 14:32 20,3 C 20,0 C 17,2 C 74 % 1005,3 hPa 0,0 l/m 0 min 0 min 183 W/m 0,0 km/h (0 Bft) 97,87 %
10.05.2020 14:34 20,3 C 20,0 C 17,2 C 75 % 1005,3 hPa 0,0 l/m 0 min 0 min 179 W/m 0,0 km/h (0 Bft) 97,87 %
10.05.2020 14:36 20,3 C 20,0 C 17,8 C 76 % 1005,3 hPa 0,0 l/m 0 min 0 min 181 W/m 0,0 km/h (0 Bft) 95,74 %
10.05.2020 14:38 20,3 C 20,0 C 17,8 C 76 % 1005,3 hPa 0,0 l/m 0 min 0 min 187 W/m 3,2 km/h (1 Bft) 97,87 %
10.05.2020 14:40 20,3 C 20,0 C 17,8 C 75 % 1005,3 hPa 0,0 l/m 0 min 0 min 196 W/m 0,0 km/h (0 Bft) 95,74 %
10.05.2020 14:42 20,3 C 20,0 C 18,3 C 76 % 1005,3 hPa 0,0 l/m 0 min 0 min 208 W/m 0,0 km/h (0 Bft) 97,83 %
10.05.2020 14:44 20,3 C 20,6 C 18,3 C 77 % 1005,3 hPa 0,0 l/m 0 min 2 min 220 W/m 0,0 km/h (0 Bft) 94,44 %
10.05.2020 14:46 20,3 C 20,0 C 18,3 C 77 % 1005,3 hPa 0,0 l/m 0 min 2 min 219 W/m 0,0 km/h (0 Bft) 98,28 %
10.05.2020 14:48 20,3 C 20,0 C 18,3 C 76 % 1005,4 hPa 0,0 l/m 0 min 2 min 207 W/m 0,0 km/h (0 Bft) 97,87 %
10.05.2020 14:50 20,2 C 19,4 C 18,3 C 76 % 1005,4 hPa 0,0 l/m 0 min 2 min 197 W/m 0,0 km/h (0 Bft) 93,62 %
10.05.2020 14:52 20,2 C 18,3 C 17,8 C 76 % 1005,4 hPa 0,2 l/m 0 min 2 min 199 W/m 0,0 km/h (0 Bft) 95,74 %
10.05.2020 14:54 20,3 C 18,9 C 17,8 C 77 % 1005,4 hPa 0,0 l/m 0 min 2 min 221 W/m 0,0 km/h (0 Bft) 97,83 %
10.05.2020 14:56 20,3 C 18,9 C 17,8 C 78 % 1005,4 hPa 0,0 l/m 0 min 2 min 246 W/m 0,0 km/h (0 Bft) 97,87 %
10.05.2020 14:58 20,3 C 19,4 C 18,3 C 79 % 1005,3 hPa 0,0 l/m 0 min 2 min 238 W/m 0,0 km/h (0 Bft) 95,74 %
10.05.2020 15:00 20,3 C 19,4 C 17,8 C 78 % 1005,4 hPa 0,0 l/m 0 min 0 min 201 W/m 0,0 km/h (0 Bft) 97,87 %
10.05.2020 15:02 20,3 C 18,9 C 17,8 C 77 % 1005,4 hPa 0,0 l/m 0 min 0 min 162 W/m 0,0 km/h (0 Bft) 97,87 %
10.05.2020 15:04 20,3 C 18,9 C 17,8 C 76 % 1005,5 hPa 0,0 l/m 0 min 2 min 137 W/m 0,0 km/h (0 Bft) 97,87 %
10.05.2020 15:06 20,3 C 18,9 C 17,2 C 77 % 1005,5 hPa 0,0 l/m 0 min 0 min 132 W/m 0,0 km/h (0 Bft) 97,83 %
10.05.2020 15:08 20,3 C 18,9 C 17,8 C 76 % 1005,4 hPa 0,0 l/m 0 min 0 min 132 W/m 0,0 km/h (0 Bft) 97,87 %
10.05.2020 15:10 20,2 C 18,9 C 17,8 C 77 % 1005,5 hPa 0,0 l/m 0 min 0 min 130 W/m 0,0 km/h (0 Bft) 97,87 %
10.05.2020 15:12 20,2 C 18,9 C 17,8 C 77 % 1005,5 hPa 0,0 l/m 0 min 0 min 132 W/m 0,0 km/h (0 Bft) 97,87 %
10.05.2020 15:14 20,2 C 18,9 C 17,8 C 78 % 1005,4 hPa 0,0 l/m 0 min 0 min 132 W/m 0,0 km/h (0 Bft) 97,87 %
10.05.2020 15:16 20,2 C 19,4 C 17,8 C 78 % 1005,4 hPa 0,0 l/m 0 min 0 min 131 W/m 0,0 km/h (0 Bft) 95,74 %
10.05.2020 15:18 20,2 C 19,4 C 17,8 C 78 % 1005,5 hPa 0,0 l/m 0 min 0 min 128 W/m 0,0 km/h (0 Bft) 97,83 %
10.05.2020 15:20 20,2 C 19,4 C 17,8 C 78 % 1005,4 hPa 0,0 l/m 0 min 0 min 127 W/m 0,0 km/h (0 Bft) 97,87 %
10.05.2020 15:22 20,1 C 19,4 C 17,8 C 77 % 1005,4 hPa 0,0 l/m 0 min 0 min 122 W/m 0,0 km/h (0 Bft) 100,00 %
10.05.2020 15:24 20,1 C 18,9 C 17,2 C 77 % 1005,4 hPa 0,0 l/m 0 min 2 min 116 W/m 3,2 km/h (1 Bft) 97,87 %
10.05.2020 15:26 20,1 C 18,3 C 17,2 C 77 % 1005,4 hPa 0,0 l/m 0 min 2 min 113 W/m 0,0 km/h (0 Bft) 97,87 %
10.05.2020 15:28 20,0 C 18,3 C 17,2 C 78 % 1005,4 hPa 0,0 l/m 0 min 2 min 116 W/m 3,2 km/h (1 Bft) 100,00 %
10.05.2020 15:30 20,0 C 17,8 C 17,2 C 78 % 1005,4 hPa 0,0 l/m 0 min 2 min 121 W/m 3,2 km/h (1 Bft) 100,00 %
10.05.2020 15:32 19,9 C 17,2 C 17,2 C 79 % 1005,5 hPa 0,0 l/m 0 min 2 min 126 W/m 9,7 km/h (2 Bft) 100,00 %
10.05.2020 15:34 19,9 C 17,2 C 16,7 C 79 % 1005,5 hPa 0,0 l/m 0 min 2 min 138 W/m 0,0 km/h (0 Bft) 100,00 %
10.05.2020 15:36 19,9 C 17,2 C 16,7 C 80 % 1005,4 hPa 0,0 l/m 0 min 2 min 170 W/m 0,0 km/h (0 Bft) 95,74 %
10.05.2020 15:38 19,9 C 17,2 C 16,7 C 81 % 1005,4 hPa 0,0 l/m 0 min 2 min 216 W/m 3,2 km/h (1 Bft) 97,14 %
10.05.2020 15:40 19,8 C 17,8 C 16,7 C 81 % 1005,4 hPa 0,0 l/m 0 min 2 min 244 W/m 0,0 km/h (0 Bft) 98,28 %
10.05.2020 15:42 19,8 C 17,8 C 17,2 C 82 % 1005,4 hPa 0,0 l/m 0 min 2 min 235 W/m 0,0 km/h (0 Bft) 97,87 %
10.05.2020 15:44 19,8 C 17,2 C 16,7 C 83 % 1005,4 hPa 0,0 l/m 0 min 2 min 218 W/m 3,2 km/h (1 Bft) 95,74 %
10.05.2020 15:46 19,8 C 17,2 C 16,7 C 83 % 1005,4 hPa 0,0 l/m 0 min 2 min 229 W/m 3,2 km/h (1 Bft) 97,87 %
10.05.2020 15:48 19,8 C 17,8 C 16,7 C 84 % 1005,4 hPa 0,0 l/m 0 min 2 min 274 W/m 0,0 km/h (0 Bft) 97,87 %
10.05.2020 15:50 19,8 C 17,8 C 17,2 C 84 % 1005,3 hPa 0,0 l/m 0 min 2 min 338 W/m 0,0 km/h (0 Bft) 97,87 %
10.05.2020 15:52 19,8 C 18,9 C 17,2 C 85 % 1005,3 hPa 0,2 l/m 2 min 0 min 413 W/m 0,0 km/h (0 Bft) 95,65 %
10.05.2020 15:54 19,8 C 18,9 C 17,8 C 85 % 1005,2 hPa 0,0 l/m 2 min 0 min 432 W/m 3,2 km/h (1 Bft) 95,74 %
10.05.2020 15:56 19,8 C 19,4 C 17,8 C 85 % 1005,2 hPa 0,0 l/m 2 min 0 min 405 W/m 0,0 km/h (0 Bft) 97,87 %
10.05.2020 15:58 19,8 C 19,4 C 18,3 C 86 % 1005,2 hPa 0,0 l/m 2 min 0 min 357 W/m 0,0 km/h (0 Bft) 97,87 %
10.05.2020 16:00 19,9 C 20,0 C 18,3 C 87 % 1005,2 hPa 0,0 l/m 0 min 0 min 323 W/m 0,0 km/h (0 Bft) 97,14 %
10.05.2020 16:02 19,9 C 20,0 C 18,3 C 87 % 1005,2 hPa 0,0 l/m 0 min 0 min 339 W/m 0,0 km/h (0 Bft) 93,75 %
10.05.2020 16:04 19,9 C 20,6 C 18,3 C 86 % 1005,2 hPa 0,0 l/m 0 min 0 min 317 W/m 0,0 km/h (0 Bft) 97,83 %
10.05.2020 16:06 19,9 C 20,0 C 18,3 C 86 % 1005,1 hPa 0,0 l/m 0 min 0 min 244 W/m 0,0 km/h (0 Bft) 93,62 %
10.05.2020 16:08 19,9 C 20,0 C 17,8 C 85 % 1005,1 hPa 0,0 l/m 0 min 0 min 182 W/m 0,0 km/h (0 Bft) 97,87 %
10.05.2020 16:10 19,9 C 19,4 C 17,8 C 84 % 1005,1 hPa 0,0 l/m 0 min 0 min 159 W/m 0,0 km/h (0 Bft) 97,87 %
10.05.2020 16:12 19,9 C 19,4 C 17,8 C 84 % 1005,1 hPa 0,0 l/m 0 min 2 min 150 W/m 3,2 km/h (1 Bft) 97,87 %
10.05.2020 16:14 19,9 C 18,9 C 17,8 C 84 % 1005,1 hPa 0,0 l/m 0 min 0 min 142 W/m 0,0 km/h (0 Bft) 97,87 %
10.05.2020 16:16 19,9 C 18,9 C 17,8 C 84 % 1005,1 hPa 0,0 l/m 0 min 2 min 132 W/m 0,0 km/h (0 Bft) 97,83 %
10.05.2020 16:18 19,9 C 18,9 C 17,8 C 84 % 1005,1 hPa 0,0 l/m 0 min 0 min 123 W/m 0,0 km/h (0 Bft) 97,87 %
10.05.2020 16:20 19,9 C 18,9 C 17,8 C 84 % 1005,1 hPa 0,0 l/m 0 min 0 min 117 W/m 0,0 km/h (0 Bft) 97,87 %
10.05.2020 16:22 19,9 C 18,9 C 17,8 C 84 % 1005,1 hPa 0,0 l/m 0 min 0 min 118 W/m 0,0 km/h (0 Bft) 100,00 %
10.05.2020 16:24 19,9 C 18,9 C 17,8 C 84 % 1005,0 hPa 0,0 l/m 0 min 0 min 120 W/m 0,0 km/h (0 Bft) 100,00 %
10.05.2020 16:26 19,8 C 18,9 C 17,8 C 84 % 1005,0 hPa 0,0 l/m 0 min 0 min 115 W/m 0,0 km/h (0 Bft) 97,87 %
10.05.2020 16:28 19,8 C 18,9 C 17,8 C 84 % 1005,0 hPa 0,0 l/m 0 min 0 min 107 W/m 0,0 km/h (0 Bft) 97,83 %
10.05.2020 16:30 19,8 C 18,9 C 17,8 C 84 % 1005,0 hPa 0,0 l/m 0 min 0 min 102 W/m 3,2 km/h (1 Bft) 100,00 %
10.05.2020 16:32 19,7 C 18,9 C 17,2 C 84 % 1005,0 hPa 0,0 l/m 0 min 0 min 97 W/m 0,0 km/h (0 Bft) 100,00 %
10.05.2020 16:34 19,7 C 18,3 C 17,2 C 84 % 1005,0 hPa 0,0 l/m 0 min 2 min 90 W/m 0,0 km/h (0 Bft) 100,00 %
10.05.2020 16:36 19,6 C 18,3 C 17,2 C 84 % 1005,0 hPa 0,0 l/m 0 min 2 min 86 W/m 0,0 km/h (0 Bft) 95,74 %
10.05.2020 16:38 19,6 C 18,3 C 17,2 C 84 % 1005,0 hPa 0,0 l/m 0 min 0 min 83 W/m 0,0 km/h (0 Bft) 100,00 %
10.05.2020 16:40 19,6 C 17,8 C 17,2 C 84 % 1005,0 hPa 0,0 l/m 0 min 2 min 83 W/m 0,0 km/h (0 Bft) 100,00 %
10.05.2020 16:42 19,6 C 17,8 C 16,7 C 84 % 1005,0 hPa 0,0 l/m 0 min 0 min 85 W/m 0,0 km/h (0 Bft) 95,74 %
10.05.2020 16:44 19,5 C 17,8 C 16,7 C 84 % 1005,0 hPa 0,0 l/m 0 min 0 min 88 W/m 0,0 km/h (0 Bft) 100,00 %
10.05.2020 16:46 19,4 C 17,8 C 16,7 C 83 % 1005,0 hPa 0,0 l/m 0 min 0 min 86 W/m 0,0 km/h (0 Bft) 100,00 %
10.05.2020 16:48 19,4 C 17,8 C 16,7 C 83 % 1005,0 hPa 0,0 l/m 0 min 0 min 82 W/m 0,0 km/h (0 Bft) 97,87 %
10.05.2020 16:50 19,3 C 17,8 C 16,7 C 83 % 1005,1 hPa 0,0 l/m 0 min 0 min 78 W/m 0,0 km/h (0 Bft) 100,00 %
10.05.2020 16:52 19,3 C 17,8 C 16,7 C 82 % 1005,1 hPa 0,0 l/m 0 min 0 min 79 W/m 0,0 km/h (0 Bft) 100,00 %
10.05.2020 16:54 19,3 C 17,8 C 16,7 C 82 % 1005,1 hPa 0,0 l/m 0 min 0 min 85 W/m 0,0 km/h (0 Bft) 100,00 %
10.05.2020 16:56 19,2 C 17,8 C 16,7 C 82 % 1005,0 hPa 0,0 l/m 0 min 0 min 92 W/m 0,0 km/h (0 Bft) 100,00 %
10.05.2020 16:58 19,2 C 17,8 C 17,2 C 82 % 1005,1 hPa 0,0 l/m 0 min 0 min 97 W/m 0,0 km/h (0 Bft) 97,87 %
10.05.2020 17:00 19,1 C 18,3 C 17,2 C 82 % 1005,0 hPa 0,0 l/m 0 min 0 min 97 W/m 0,0 km/h (0 Bft) 95,74 %
10.05.2020 17:02 19,1 C 18,3 C 17,2 C 82 % 1005,0 hPa 0,0 l/m 0 min 0 min 97 W/m 0,0 km/h (0 Bft) 95,74 %
10.05.2020 17:04 19,1 C 18,3 C 17,2 C 82 % 1005,0 hPa 0,0 l/m 0 min 0 min 100 W/m 0,0 km/h (0 Bft) 97,83 %
10.05.2020 17:06 19,1 C 18,3 C 17,2 C 82 % 1005,0 hPa 0,0 l/m 0 min 0 min 101 W/m 0,0 km/h (0 Bft) 97,87 %
10.05.2020 17:08 19,1 C 18,3 C 17,2 C 82 % 1005,0 hPa 0,0 l/m 0 min 0 min 102 W/m 0,0 km/h (0 Bft) 97,87 %
10.05.2020 17:10 19,0 C 18,3 C 17,2 C 82 % 1005,0 hPa 0,0 l/m 0 min 0 min 104 W/m 0,0 km/h (0 Bft) 95,74 %
10.05.2020 17:12 19,0 C 18,3 C 17,2 C 82 % 1005,0 hPa 0,0 l/m 0 min 0 min 101 W/m 0,0 km/h (0 Bft) 97,87 %
10.05.2020 17:14 19,0 C 18,3 C 17,2 C 83 % 1005,0 hPa 0,0 l/m 0 min 0 min 95 W/m 0,0 km/h (0 Bft) 97,83 %
10.05.2020 17:16 18,9 C 18,3 C 17,2 C 83 % 1005,1 hPa 0,0 l/m 0 min 0 min 91 W/m 0,0 km/h (0 Bft) 95,74 %
10.05.2020 17:18 18,9 C 18,3 C 17,2 C 82 % 1005,0 hPa 0,0 l/m 0 min 0 min 87 W/m 0,0 km/h (0 Bft) 97,87 %
10.05.2020 17:20 18,9 C 18,3 C 17,2 C 82 % 1005,1 hPa 0,0 l/m 0 min 0 min 87 W/m 0,0 km/h (0 Bft) 97,87 %
10.05.2020 17:22 18,9 C 18,3 C 17,2 C 82 % 1005,1 hPa 0,0 l/m 0 min 0 min 90 W/m 0,0 km/h (0 Bft) 97,87 %
10.05.2020 17:24 18,9 C 18,3 C 17,2 C 82 % 1005,1 hPa 0,0 l/m 0 min 0 min 89 W/m 0,0 km/h (0 Bft) 95,74 %
10.05.2020 17:26 18,8 C 18,3 C 17,2 C 82 % 1005,1 hPa 0,0 l/m 0 min 0 min 86 W/m 0,0 km/h (0 Bft) 95,65 %
10.05.2020 17:28 18,8 C 18,3 C 17,2 C 82 % 1005,1 hPa 0,0 l/m 0 min 0 min 84 W/m 0,0 km/h (0 Bft) 97,87 %
10.05.2020 17:30 18,8 C 18,3 C 17,2 C 82 % 1005,1 hPa 0,0 l/m 0 min 0 min 83 W/m 0,0 km/h (0 Bft) 97,87 %
10.05.2020 17:32 18,8 C 18,3 C 17,2 C 82 % 1005,1 hPa 0,0 l/m 0 min 0 min 82 W/m 0,0 km/h (0 Bft) 95,74 %
10.05.2020 17:34 18,8 C 18,3 C 17,2 C 82 % 1005,1 hPa 0,0 l/m 0 min 0 min 80 W/m 0,0 km/h (0 Bft) 95,74 %
10.05.2020 17:36 18,8 C 18,3 C 17,2 C 82 % 1005,1 hPa 0,0 l/m 0 min 0 min 76 W/m 0,0 km/h (0 Bft) 97,87 %
10.05.2020 17:38 18,8 C 18,3 C 17,2 C 81 % 1005,1 hPa 0,0 l/m 0 min 0 min 70 W/m 0,0 km/h (0 Bft) 95,65 %
10.05.2020 17:40 18,8 C 18,3 C 17,2 C 81 % 1005,1 hPa 0,0 l/m 0 min 2 min 69 W/m 0,0 km/h (0 Bft) 95,74 %
10.05.2020 17:42 18,8 C 18,3 C 16,7 C 82 % 1005,1 hPa 0,0 l/m 0 min 0 min 75 W/m 0,0 km/h (0 Bft) 95,74 %
10.05.2020 17:44 18,8 C 18,3 C 16,7 C 82 % 1005,1 hPa 0,0 l/m 0 min 0 min 83 W/m 0,0 km/h (0 Bft) 95,74 %
10.05.2020 17:46 18,8 C 18,3 C 16,7 C 83 % 1005,0 hPa 0,0 l/m 0 min 0 min 96 W/m 0,0 km/h (0 Bft) 95,74 %
10.05.2020 17:48 18,8 C 18,3 C 16,7 C 83 % 1005,1 hPa 0,0 l/m 0 min 0 min 112 W/m 0,0 km/h (0 Bft) 93,62 %
10.05.2020 17:50 18,8 C 18,3 C 16,7 C 83 % 1005,0 hPa 0,0 l/m 0 min 0 min 130 W/m 0,0 km/h (0 Bft) 95,65 %
10.05.2020 17:52 18,8 C 18,9 C 17,2 C 83 % 1005,0 hPa 0,0 l/m 0 min 0 min 142 W/m 0,0 km/h (0 Bft) 93,62 %
10.05.2020 17:54 18,8 C 18,9 C 17,2 C 83 % 1005,0 hPa 0,0 l/m 0 min 0 min 138 W/m 0,0 km/h (0 Bft) 95,74 %
10.05.2020 17:56 18,8 C 18,9 C 17,2 C 83 % 1005,0 hPa 0,0 l/m 0 min 0 min 130 W/m 0,0 km/h (0 Bft) 93,62 %
10.05.2020 17:58 18,7 C 18,9 C 17,2 C 82 % 1005,0 hPa 0,0 l/m 0 min 0 min 129 W/m 0,0 km/h (0 Bft) 97,87 %
10.05.2020 18:00 18,7 C 18,9 C 17,8 C 82 % 1005,0 hPa 0,0 l/m 0 min 0 min 133 W/m 0,0 km/h (0 Bft) 97,87 %
10.05.2020 18:02 18,7 C 18,9 C 17,8 C 81 % 1004,9 hPa 0,0 l/m 0 min 0 min 135 W/m 0,0 km/h (0 Bft) 97,83 %
10.05.2020 18:04 18,7 C 19,4 C 17,8 C 81 % 1004,9 hPa 0,0 l/m 0 min 0 min 129 W/m 0,0 km/h (0 Bft) 95,74 %
10.05.2020 18:08 18,7 C 19,4 C 17,8 C 81 % 1004,9 hPa 0,0 l/m 0 min 0 min 122 W/m 0,0 km/h (0 Bft) 97,87 %
10.05.2020 18:10 18,7 C 19,4 C 17,8 C 80 % 1005,0 hPa 0,0 l/m 0 min 0 min 133 W/m 0,0 km/h (0 Bft) 97,87 %
10.05.2020 18:12 18,7 C 19,4 C 17,8 C 80 % 1005,0 hPa 0,0 l/m 0 min 0 min 149 W/m 0,0 km/h (0 Bft) 95,74 %
10.05.2020 18:14 18,7 C 19,4 C 17,8 C 80 % 1004,9 hPa 0,0 l/m 0 min 0 min 158 W/m 0,0 km/h (0 Bft) 95,65 %
10.05.2020 18:16 18,8 C 19,4 C 17,8 C 81 % 1004,9 hPa 0,0 l/m 0 min 0 min 156 W/m 0,0 km/h (0 Bft) 97,87 %
10.05.2020 18:18 18,8 C 20,0 C 18,3 C 81 % 1004,9 hPa 0,0 l/m 0 min 0 min 153 W/m 0,0 km/h (0 Bft) 97,87 %
10.05.2020 18:20 18,8 C 20,0 C 18,3 C 82 % 1004,9 hPa 0,0 l/m 0 min 0 min 157 W/m 3,2 km/h (1 Bft) 97,87 %
10.05.2020 18:22 18,8 C 19,4 C 18,3 C 81 % 1004,9 hPa 0,0 l/m 0 min 0 min 165 W/m 0,0 km/h (0 Bft) 93,62 %
10.05.2020 18:24 18,8 C 19,4 C 18,3 C 81 % 1004,9 hPa 0,0 l/m 0 min 0 min 161 W/m 0,0 km/h (0 Bft) 95,65 %
10.05.2020 18:26 18,9 C 19,4 C 18,3 C 80 % 1004,9 hPa 0,0 l/m 0 min 0 min 142 W/m 0,0 km/h (0 Bft) 95,74 %
10.05.2020 18:28 18,9 C 19,4 C 18,3 C 80 % 1004,9 hPa 0,0 l/m 0 min 0 min 123 W/m 0,0 km/h (0 Bft) 97,87 %
10.05.2020 18:30 18,9 C 19,4 C 18,3 C 80 % 1005,0 hPa 0,0 l/m 0 min 0 min 111 W/m 0,0 km/h (0 Bft) 97,87 %
10.05.2020 18:32 18,9 C 19,4 C 18,3 C 80 % 1005,0 hPa 0,0 l/m 0 min 0 min 105 W/m 0,0 km/h (0 Bft) 97,87 %
10.05.2020 18:34 18,9 C 18,9 C 18,3 C 80 % 1005,0 hPa 0,0 l/m 0 min 0 min 108 W/m 0,0 km/h (0 Bft) 97,87 %
10.05.2020 18:36 19,0 C 19,4 C 18,3 C 80 % 1005,0 hPa 0,0 l/m 0 min 0 min 113 W/m 0,0 km/h (0 Bft) 97,83 %
10.05.2020 18:38 19,0 C 19,4 C 18,3 C 80 % 1005,0 hPa 0,0 l/m 0 min 0 min 115 W/m 0,0 km/h (0 Bft) 97,87 %
10.05.2020 18:40 19,1 C 19,4 C 18,3 C 80 % 1005,0 hPa 0,0 l/m 0 min 0 min 110 W/m 0,0 km/h (0 Bft) 95,74 %
10.05.2020 18:42 19,1 C 18,9 C 17,8 C 80 % 1005,0 hPa 0,0 l/m 0 min 0 min 100 W/m 0,0 km/h (0 Bft) 95,74 %
10.05.2020 18:44 19,1 C 18,9 C 17,8 C 81 % 1004,9 hPa 0,0 l/m 0 min 0 min 93 W/m 0,0 km/h (0 Bft) 97,87 %
10.05.2020 18:46 19,1 C 18,9 C 17,8 C 81 % 1005,0 hPa 0,0 l/m 0 min 0 min 88 W/m 0,0 km/h (0 Bft) 97,87 %
10.05.2020 18:48 19,1 C 18,9 C 17,8 C 81 % 1005,0 hPa 0,0 l/m 0 min 0 min 85 W/m 0,0 km/h (0 Bft) 95,65 %
10.05.2020 18:50 19,1 C 18,9 C 17,8 C 81 % 1005,0 hPa 0,0 l/m 0 min 0 min 81 W/m 0,0 km/h (0 Bft) 97,87 %
10.05.2020 18:52 19,1 C 18,9 C 17,8 C 81 % 1005,0 hPa 0,0 l/m 0 min 0 min 72 W/m 0,0 km/h (0 Bft) 97,87 %
10.05.2020 18:54 19,1 C 18,9 C 17,8 C 80 % 1005,0 hPa 0,0 l/m 0 min 0 min 70 W/m 0,0 km/h (0 Bft) 95,74 %
10.05.2020 18:56 19,1 C 18,9 C 17,2 C 80 % 1005,0 hPa 0,0 l/m 0 min 0 min 73 W/m 0,0 km/h (0 Bft) 97,87 %
10.05.2020 18:58 19,1 C 18,9 C 17,2 C 80 % 1005,0 hPa 0,0 l/m 0 min 0 min 75 W/m 0,0 km/h (0 Bft) 95,74 %
10.05.2020 19:00 19,1 C 18,9 C 17,2 C 79 % 1004,9 hPa 0,0 l/m 0 min 0 min 70 W/m 0,0 km/h (0 Bft) 97,83 %
10.05.2020 19:02 19,1 C 18,3 C 17,8 C 79 % 1005,0 hPa 0,0 l/m 0 min 0 min 66 W/m 0,0 km/h (0 Bft) 97,87 %
10.05.2020 19:04 19,1 C 18,3 C 17,8 C 78 % 1004,9 hPa 0,0 l/m 0 min 0 min 69 W/m 0,0 km/h (0 Bft) 97,87 %
10.05.2020 19:06 19,1 C 18,3 C 17,8 C 78 % 1004,9 hPa 0,0 l/m 0 min 0 min 66 W/m 0,0 km/h (0 Bft) 100,00 %
10.05.2020 19:08 19,1 C 18,3 C 17,8 C 77 % 1004,9 hPa 0,0 l/m 0 min 0 min 61 W/m 0,0 km/h (0 Bft) 97,87 %
10.05.2020 19:10 19,1 C 18,3 C 17,2 C 77 % 1004,9 hPa 0,0 l/m 0 min 0 min 60 W/m 0,0 km/h (0 Bft) 100,00 %
10.05.2020 19:12 19,1 C 18,3 C 17,2 C 78 % 1004,9 hPa 0,0 l/m 0 min 0 min 59 W/m 0,0 km/h (0 Bft) 97,87 %
10.05.2020 19:14 19,1 C 18,3 C 17,2 C 78 % 1004,9 hPa 0,0 l/m 0 min 0 min 59 W/m 0,0 km/h (0 Bft) 97,87 %
10.05.2020 19:16 19,1 C 18,3 C 17,2 C 78 % 1004,8 hPa 0,0 l/m 0 min 0 min 65 W/m 0,0 km/h (0 Bft) 95,74 %
10.05.2020 19:18 19,1 C 18,3 C 17,2 C 78 % 1004,8 hPa 0,0 l/m 0 min 0 min 69 W/m 0,0 km/h (0 Bft) 100,00 %
10.05.2020 19:20 19,1 C 18,3 C 17,2 C 78 % 1004,8 hPa 0,0 l/m 0 min 0 min 74 W/m 0,0 km/h (0 Bft) 97,87 %
10.05.2020 19:22 19,1 C 18,9 C 17,2 C 78 % 1004,7 hPa 0,0 l/m 0 min 0 min 89 W/m 0,0 km/h (0 Bft) 100,00 %
10.05.2020 19:25 19,1 C 18,9 C 17,2 C 78 % 1004,8 hPa 0,0 l/m 0 min 0 min 95 W/m 0,0 km/h (0 Bft) 100,00 %
10.05.2020 19:28 19,1 C 18,9 C 17,2 C 78 % 1004,7 hPa 0,0 l/m 0 min 0 min 83 W/m 0,0 km/h (0 Bft) 100,00 %
10.05.2020 19:30 19,1 C 18,9 C 17,2 C 79 % 1004,8 hPa 0,0 l/m 0 min 0 min 68 W/m 0,0 km/h (0 Bft) 97,87 %
10.05.2020 19:32 19,1 C 18,9 C 17,2 C 79 % 1004,8 hPa 0,0 l/m 0 min 0 min 57 W/m 0,0 km/h (0 Bft) 100,00 %
10.05.2020 19:34 19,1 C 18,3 C 17,2 C 79 % 1004,8 hPa 0,0 l/m 0 min 0 min 47 W/m 0,0 km/h (0 Bft) 100,00 %
10.05.2020 19:35 19,1 C 18,3 C 17,2 C 79 % 1004,8 hPa 0,0 l/m 0 min 0 min 49 W/m 0,0 km/h (0 Bft) 100,00 %
10.05.2020 19:38 19,1 C 18,3 C 16,7 C 79 % 1004,8 hPa 0,0 l/m 0 min 0 min 33 W/m 0,0 km/h (0 Bft) 100,00 %
10.05.2020 19:40 19,1 C 18,3 C 16,7 C 79 % 1004,8 hPa 0,0 l/m 0 min 0 min 28 W/m 0,0 km/h (0 Bft) 100,00 %
10.05.2020 19:42 19,1 C 18,3 C 16,7 C 79 % 1004,8 hPa 0,0 l/m 0 min 0 min 21 W/m 0,0 km/h (0 Bft) 97,87 %
10.05.2020 19:44 19,1 C 17,8 C 16,7 C 79 % 1004,9 hPa 0,0 l/m 0 min 0 min 16 W/m 0,0 km/h (0 Bft) 100,00 %
10.05.2020 19:46 19,1 C 17,8 C 16,7 C 79 % 1005,0 hPa 0,0 l/m 0 min 0 min 14 W/m 9,7 km/h (2 Bft) 100,00 %
10.05.2020 19:48 18,9 C 17,2 C 16,7 C 79 % 1005,1 hPa 0,0 l/m 0 min 0 min 10 W/m 16,1 km/h (3 Bft) 100,00 %
10.05.2020 19:50 18,8 C 17,2 C 16,7 C 79 % 1005,2 hPa 0,0 l/m 0 min 0 min 8 W/m 9,7 km/h (2 Bft) 100,00 %
10.05.2020 19:52 18,7 C 16,7 C 16,1 C 78 % 1005,2 hPa 0,0 l/m 0 min 0 min 7 W/m 12,9 km/h (3 Bft) 97,92 %
10.05.2020 19:54 18,6 C 16,7 C 16,1 C 78 % 1005,2 hPa 0,0 l/m 0 min 0 min 9 W/m 9,7 km/h (2 Bft) 100,00 %
10.05.2020 19:56 18,5 C 16,1 C 16,1 C 78 % 1005,3 hPa 0,0 l/m 0 min 0 min 13 W/m 3,2 km/h (1 Bft) 100,00 %
10.05.2020 19:58 18,3 C 16,1 C 16,1 C 78 % 1005,3 hPa 0,0 l/m 0 min 0 min 16 W/m 16,1 km/h (3 Bft) 100,00 %
10.05.2020 20:00 18,2 C 16,1 C 15,6 C 78 % 1005,3 hPa 0,0 l/m 0 min 0 min 16 W/m 9,7 km/h (2 Bft) 100,00 %
10.05.2020 20:02 18,1 C 16,1 C 15,6 C 78 % 1005,4 hPa 0,0 l/m 0 min 0 min 19 W/m 6,4 km/h (2 Bft) 98,18 %
10.05.2020 20:04 18,0 C 15,6 C 15,6 C 79 % 1005,4 hPa 0,0 l/m 0 min 0 min 21 W/m 12,9 km/h (3 Bft) 100,00 %
10.05.2020 20:06 17,8 C 15,6 C 15,6 C 79 % 1005,5 hPa 0,0 l/m 0 min 0 min 19 W/m 19,3 km/h (3 Bft) 97,83 %
10.05.2020 20:08 17,7 C 15,6 C 15,0 C 79 % 1005,6 hPa 0,0 l/m 0 min 0 min 17 W/m 19,3 km/h (3 Bft) 100,00 %
10.05.2020 20:09 17,5 C 15,6 C 15,0 C 79 % 1005,7 hPa 0,0 l/m 0 min 0 min 12 W/m 6,4 km/h (2 Bft) 100,00 %
10.05.2020 20:12 17,4 C 15,0 C 15,0 C 79 % 1005,8 hPa 0,0 l/m 0 min 0 min 11 W/m 6,4 km/h (2 Bft) 100,00 %
10.05.2020 20:14 17,3 C 15,0 C 15,0 C 79 % 1005,9 hPa 0,0 l/m 0 min 0 min 11 W/m 9,7 km/h (2 Bft) 97,87 %
10.05.2020 20:16 17,1 C 15,0 C 15,0 C 79 % 1005,8 hPa 0,0 l/m 0 min 0 min 11 W/m 12,9 km/h (3 Bft) 95,74 %
10.05.2020 20:18 16,9 C 14,4 C 14,4 C 79 % 1006,0 hPa 0,0 l/m 0 min 0 min 11 W/m 6,4 km/h (2 Bft) 100,00 %
10.05.2020 20:20 16,7 C 14,4 C 14,4 C 79 % 1006,1 hPa 0,0 l/m 0 min 0 min 11 W/m 9,7 km/h (2 Bft) 93,62 %
10.05.2020 20:22 16,6 C 14,4 C 14,4 C 79 % 1006,1 hPa 0,0 l/m 0 min 0 min 11 W/m 16,1 km/h (3 Bft) 93,48 %
10.05.2020 20:24 16,4 C 13,9 C 13,9 C 79 % 1006,2 hPa 0,0 l/m 0 min 0 min 11 W/m 32,2 km/h (5 Bft) 97,87 %
10.05.2020 20:26 16,2 C 13,9 C 13,9 C 79 % 1006,2 hPa 0,0 l/m 0 min 0 min 10 W/m 9,7 km/h (2 Bft) 97,87 %
10.05.2020 20:28 16,1 C 13,9 C 13,9 C 80 % 1006,2 hPa 0,0 l/m 0 min 0 min 8 W/m 16,1 km/h (3 Bft) 97,87 %
10.05.2020 20:30 15,9 C 13,9 C 13,9 C 80 % 1006,2 hPa 0,0 l/m 0 min 0 min 6 W/m 19,3 km/h (3 Bft) 95,74 %
10.05.2020 20:32 15,7 C 13,9 C 13,9 C 81 % 1006,3 hPa 0,0 l/m 0 min 0 min 5 W/m 19,3 km/h (3 Bft) 95,65 %
10.05.2020 20:34 15,5 C 13,3 C 13,3 C 81 % 1006,1 hPa 0,0 l/m 0 min 0 min 5 W/m 12,9 km/h (3 Bft) 97,87 %
10.05.2020 20:36 15,3 C 13,3 C 13,3 C 82 % 1006,2 hPa 0,0 l/m 0 min 0 min 5 W/m 22,5 km/h (4 Bft) 95,74 %
10.05.2020 20:38 15,2 C 13,3 C 13,3 C 82 % 1006,3 hPa 0,0 l/m 0 min 0 min 5 W/m 12,9 km/h (3 Bft) 97,87 %
10.05.2020 20:40 15,1 C 13,3 C 13,3 C 82 % 1006,3 hPa 0,0 l/m 0 min 0 min 1 W/m 19,3 km/h (3 Bft) 91,49 %
10.05.2020 20:42 14,9 C 13,3 C 13,3 C 82 % 1006,3 hPa 0,0 l/m 0 min 0 min 0 W/m 12,9 km/h (3 Bft) 95,74 %
10.05.2020 20:44 14,8 C 12,8 C 13,3 C 83 % 1006,4 hPa 0,0 l/m 0 min 0 min 0 W/m 19,3 km/h (3 Bft) 95,65 %
10.05.2020 20:46 14,7 C 12,8 C 12,8 C 83 % 1006,4 hPa 0,0 l/m 0 min 0 min 0 W/m 9,7 km/h (2 Bft) 93,62 %
10.05.2020 20:48 14,6 C 12,8 C 12,8 C 83 % 1006,5 hPa 0,0 l/m 0 min 0 min 0 W/m 9,7 km/h (2 Bft) 95,74 %
10.05.2020 20:50 14,5 C 12,8 C 12,8 C 83 % 1006,5 hPa 0,0 l/m 0 min 0 min 0 W/m 16,1 km/h (3 Bft) 95,74 %
10.05.2020 20:52 14,4 C 12,8 C 12,8 C 84 % 1006,7 hPa 0,0 l/m 0 min 0 min 0 W/m 16,1 km/h (3 Bft) 95,74 %
10.05.2020 20:54 14,3 C 12,8 C 12,8 C 84 % 1006,6 hPa 0,0 l/m 0 min 0 min 0 W/m 22,5 km/h (4 Bft) 95,74 %
10.05.2020 20:56 14,2 C 12,2 C 12,8 C 84 % 1006,6 hPa 0,0 l/m 0 min 0 min 0 W/m 22,5 km/h (4 Bft) 97,83 %
10.05.2020 20:58 14,1 C 12,2 C 12,8 C 84 % 1006,7 hPa 0,0 l/m 0 min 0 min 0 W/m 12,9 km/h (3 Bft) 93,62 %
10.05.2020 21:00 13,9 C 12,2 C 12,2 C 84 % 1006,9 hPa 0,0 l/m 0 min 0 min 0 W/m 22,5 km/h (4 Bft) 95,74 %
10.05.2020 21:02 13,8 C 12,2 C 12,2 C 84 % 1007,0 hPa 0,0 l/m 0 min 0 min 0 W/m 25,7 km/h (4 Bft) 95,74 %
10.05.2020 21:04 13,6 C 11,7 C 12,2 C 84 % 1007,1 hPa 0,0 l/m 0 min 0 min 0 W/m 12,9 km/h (3 Bft) 95,74 %
10.05.2020 21:06 13,6 C 11,7 C 12,2 C 84 % 1007,1 hPa 0,0 l/m 0 min 0 min 0 W/m 19,3 km/h (3 Bft) 95,74 %
10.05.2020 21:08 13,4 C 11,7 C 12,2 C 84 % 1007,2 hPa 0,0 l/m 0 min 0 min 0 W/m 12,9 km/h (3 Bft) 93,48 %
10.05.2020 21:10 13,3 C 11,7 C 12,2 C 84 % 1007,2 hPa 0,0 l/m 0 min 0 min 0 W/m 9,7 km/h (2 Bft) 91,49 %
10.05.2020 21:12 13,2 C 11,7 C 11,7 C 84 % 1007,5 hPa 0,0 l/m 0 min 0 min 0 W/m 38,6 km/h (5 Bft) 93,62 %
10.05.2020 21:14 13,1 C 11,7 C 11,7 C 84 % 1007,3 hPa 0,0 l/m 0 min 0 min 0 W/m 12,9 km/h (3 Bft) 93,62 %
10.05.2020 21:16 13,0 C 11,1 C 11,7 C 84 % 1007,5 hPa 0,0 l/m 0 min 0 min 0 W/m 19,3 km/h (3 Bft) 93,62 %
10.05.2020 21:18 12,9 C 11,1 C 11,7 C 85 % 1007,5 hPa 0,0 l/m 0 min 0 min 0 W/m 16,1 km/h (3 Bft) 91,49 %
10.05.2020 21:20 12,8 C 11,1 C 11,7 C 85 % 1007,5 hPa 0,0 l/m 0 min 0 min 0 W/m 22,5 km/h (4 Bft) 93,48 %
10.05.2020 21:22 12,7 C 11,1 C 11,7 C 85 % 1007,7 hPa 0,0 l/m 0 min 0 min 0 W/m 12,9 km/h (3 Bft) 93,62 %
10.05.2020 21:24 12,6 C 11,1 C 11,7 C 85 % 1007,7 hPa 0,0 l/m 0 min 0 min 0 W/m 12,9 km/h (3 Bft) 91,49 %
10.05.2020 21:26 12,6 C 11,1 C 11,7 C 85 % 1007,6 hPa 0,0 l/m 0 min 0 min 0 W/m 12,9 km/h (3 Bft) 95,74 %
10.05.2020 21:28 12,4 C 11,1 C 11,1 C 85 % 1007,8 hPa 0,0 l/m 0 min 0 min 0 W/m 12,9 km/h (3 Bft) 100,00 %
10.05.2020 21:30 12,4 C 11,1 C 11,1 C 85 % 1007,8 hPa 0,0 l/m 0 min 0 min 0 W/m 12,9 km/h (3 Bft) 95,74 %
10.05.2020 21:32 12,3 C 11,1 C 11,1 C 86 % 1007,8 hPa 0,0 l/m 0 min 0 min 0 W/m 6,4 km/h (2 Bft) 97,83 %
10.05.2020 21:34 12,3 C 11,1 C 11,1 C 86 % 1007,9 hPa 0,0 l/m 0 min 0 min 0 W/m 6,4 km/h (2 Bft) 97,87 %
10.05.2020 21:36 12,2 C 10,6 C 11,1 C 86 % 1007,9 hPa 0,0 l/m 0 min 0 min 0 W/m 22,5 km/h (4 Bft) 95,74 %
10.05.2020 21:38 12,1 C 10,6 C 11,1 C 86 % 1007,9 hPa 0,0 l/m 0 min 0 min 0 W/m 22,5 km/h (4 Bft) 95,74 %
10.05.2020 21:40 12,1 C 10,6 C 11,1 C 86 % 1008,0 hPa 0,0 l/m 0 min 0 min 0 W/m 12,9 km/h (3 Bft) 97,87 %
10.05.2020 21:42 11,9 C 10,6 C 10,6 C 86 % 1008,1 hPa 0,0 l/m 0 min 0 min 0 W/m 12,9 km/h (3 Bft) 97,83 %
10.05.2020 21:44 11,8 C 10,6 C 10,6 C 86 % 1007,9 hPa 0,0 l/m 0 min 0 min 0 W/m 16,1 km/h (3 Bft) 97,87 %
10.05.2020 21:46 11,8 C 10,0 C 10,6 C 86 % 1008,2 hPa 0,0 l/m 0 min 0 min 0 W/m 16,1 km/h (3 Bft) 97,87 %
10.05.2020 21:48 11,7 C 10,0 C 10,6 C 86 % 1008,2 hPa 0,0 l/m 0 min 0 min 0 W/m 12,9 km/h (3 Bft) 95,74 %
10.05.2020 21:50 11,6 C 10,0 C 10,6 C 86 % 1008,2 hPa 0,0 l/m 0 min 0 min 0 W/m 12,9 km/h (3 Bft) 97,87 %
10.05.2020 21:52 11,6 C 10,0 C 10,6 C 86 % 1008,3 hPa 0,0 l/m 0 min 0 min 0 W/m 25,7 km/h (4 Bft) 95,74 %
10.05.2020 21:54 11,4 C 10,0 C 10,6 C 86 % 1008,3 hPa 0,0 l/m 0 min 0 min 0 W/m 12,9 km/h (3 Bft) 97,83 %
10.05.2020 21:56 11,4 C 10,0 C 10,6 C 86 % 1008,3 hPa 0,0 l/m 0 min 0 min 0 W/m 19,3 km/h (3 Bft) 97,87 %
10.05.2020 21:58 11,3 C 10,0 C 10,0 C 86 % 1008,4 hPa 0,0 l/m 0 min 0 min 0 W/m 16,1 km/h (3 Bft) 97,87 %
10.05.2020 22:00 11,3 C 9,4 C 10,0 C 87 % 1008,4 hPa 0,0 l/m 0 min 0 min 0 W/m 9,7 km/h (2 Bft) 97,87 %
10.05.2020 22:02 11,2 C 9,4 C 10,0 C 87 % 1008,6 hPa 0,0 l/m 0 min 2 min 0 W/m 6,4 km/h (2 Bft) 100,00 %
10.05.2020 22:04 11,1 C 9,4 C 10,0 C 87 % 1008,5 hPa 0,0 l/m 0 min 2 min 0 W/m 12,9 km/h (3 Bft) 100,00 %
10.05.2020 22:06 11,1 C 9,4 C 10,0 C 87 % 1008,7 hPa 0,0 l/m 0 min 0 min 0 W/m 16,1 km/h (3 Bft) 100,00 %
10.05.2020 22:08 11,0 C 8,9 C 9,4 C 88 % 1008,5 hPa 0,0 l/m 0 min 0 min 0 W/m 16,1 km/h (3 Bft) 97,87 %
10.05.2020 22:10 10,9 C 8,9 C 9,4 C 88 % 1008,6 hPa 0,0 l/m 0 min 0 min 0 W/m 9,7 km/h (2 Bft) 100,00 %
10.05.2020 22:12 10,8 C 8,9 C 9,4 C 88 % 1008,7 hPa 0,0 l/m 0 min 0 min 0 W/m 6,4 km/h (2 Bft) 100,00 %
10.05.2020 22:14 10,8 C 8,9 C 9,4 C 89 % 1008,6 hPa 0,0 l/m 0 min 0 min 0 W/m 3,2 km/h (1 Bft) 100,00 %
10.05.2020 22:16 10,7 C 8,9 C 9,4 C 89 % 1008,7 hPa 0,0 l/m 0 min 0 min 0 W/m 6,4 km/h (2 Bft) 97,87 %
10.05.2020 22:18 10,7 C 8,9 C 9,4 C 89 % 1008,8 hPa 0,0 l/m 0 min 0 min 0 W/m 9,7 km/h (2 Bft) 100,00 %
10.05.2020 22:20 10,6 C 8,9 C 9,4 C 89 % 1008,8 hPa 0,0 l/m 0 min 0 min 0 W/m 3,2 km/h (1 Bft) 100,00 %
10.05.2020 22:22 10,6 C 8,9 C 8,9 C 89 % 1008,9 hPa 0,0 l/m 0 min 0 min 0 W/m 6,4 km/h (2 Bft) 100,00 %
10.05.2020 22:24 10,5 C 8,3 C 8,9 C 89 % 1008,9 hPa 0,0 l/m 0 min 0 min 0 W/m 12,9 km/h (3 Bft) 100,00 %
10.05.2020 22:26 10,4 C 8,3 C 8,9 C 89 % 1008,9 hPa 0,0 l/m 0 min 0 min 0 W/m 9,7 km/h (2 Bft) 100,00 %
10.05.2020 22:28 10,4 C 8,3 C 8,9 C 89 % 1009,0 hPa 0,0 l/m 0 min 0 min 0 W/m 12,9 km/h (3 Bft) 100,00 %
10.05.2020 22:30 10,3 C 8,3 C 8,9 C 89 % 1009,1 hPa 0,0 l/m 0 min 0 min 0 W/m 16,1 km/h (3 Bft) 100,00 %
10.05.2020 22:32 10,2 C 8,3 C 8,9 C 89 % 1009,0 hPa 0,0 l/m 0 min 0 min 0 W/m 6,4 km/h (2 Bft) 100,00 %
10.05.2020 22:34 10,2 C 8,3 C 8,9 C 90 % 1009,1 hPa 0,0 l/m 0 min 0 min 0 W/m 6,4 km/h (2 Bft) 100,00 %
10.05.2020 22:36 10,2 C 8,3 C 8,9 C 90 % 1009,2 hPa 0,0 l/m 0 min 0 min 0 W/m 16,1 km/h (3 Bft) 100,00 %
10.05.2020 22:38 10,1 C 8,3 C 8,9 C 90 % 1009,2 hPa 0,0 l/m 0 min 0 min 0 W/m 16,1 km/h (3 Bft) 100,00 %
10.05.2020 22:40 10,1 C 8,3 C 8,9 C 90 % 1009,3 hPa 0,0 l/m 0 min 0 min 0 W/m 9,7 km/h (2 Bft) 100,00 %
10.05.2020 22:42 10,0 C 8,3 C 8,9 C 90 % 1009,3 hPa 0,0 l/m 0 min 0 min 0 W/m 3,2 km/h (1 Bft) 100,00 %
10.05.2020 22:44 9,9 C 8,3 C 8,9 C 90 % 1009,3 hPa 0,0 l/m 0 min 0 min 0 W/m 9,7 km/h (2 Bft) 100,00 %
10.05.2020 22:46 9,9 C 8,3 C 8,9 C 90 % 1009,4 hPa 0,0 l/m 0 min 0 min 0 W/m 16,1 km/h (3 Bft) 100,00 %
10.05.2020 22:48 9,8 C 7,8 C 8,3 C 90 % 1009,4 hPa 0,0 l/m 0 min 2 min 0 W/m 9,7 km/h (2 Bft) 100,00 %
10.05.2020 22:50 9,7 C 7,8 C 8,3 C 90 % 1009,4 hPa 0,0 l/m 0 min 2 min 0 W/m 9,7 km/h (2 Bft) 100,00 %
10.05.2020 22:52 9,7 C 7,8 C 8,3 C 90 % 1009,2 hPa 0,0 l/m 0 min 2 min 0 W/m 19,3 km/h (3 Bft) 100,00 %
10.05.2020 22:54 9,6 C 7,8 C 8,3 C 89 % 1009,4 hPa 0,0 l/m 0 min 0 min 0 W/m 12,9 km/h (3 Bft) 100,00 %
10.05.2020 22:56 9,6 C 7,8 C 8,3 C 89 % 1009,3 hPa 0,0 l/m 0 min 2 min 0 W/m 16,1 km/h (3 Bft) 97,87 %
10.05.2020 22:58 9,4 C 7,8 C 7,8 C 89 % 1009,4 hPa 0,0 l/m 0 min 2 min 0 W/m 6,4 km/h (2 Bft) 100,00 %
10.05.2020 23:00 9,4 C 7,8 C 7,8 C 89 % 1009,4 hPa 0,0 l/m 0 min 0 min 0 W/m 9,7 km/h (2 Bft) 100,00 %
10.05.2020 23:02 9,3 C 7,2 C 7,8 C 89 % 1009,4 hPa 0,0 l/m 0 min 0 min 0 W/m 6,4 km/h (2 Bft) 100,00 %
10.05.2020 23:04 9,3 C 7,2 C 7,8 C 89 % 1009,4 hPa 0,0 l/m 0 min 2 min 0 W/m 12,9 km/h (3 Bft) 100,00 %
10.05.2020 23:06 9,3 C 7,2 C 7,8 C 89 % 1009,4 hPa 0,0 l/m 0 min 2 min 0 W/m 6,4 km/h (2 Bft) 97,87 %
10.05.2020 23:08 9,2 C 7,2 C 7,8 C 89 % 1009,4 hPa 0,0 l/m 0 min 2 min 0 W/m 3,2 km/h (1 Bft) 97,87 %
10.05.2020 23:10 9,2 C 7,2 C 7,8 C 89 % 1009,5 hPa 0,0 l/m 0 min 2 min 0 W/m 22,5 km/h (4 Bft) 100,00 %
10.05.2020 23:12 9,1 C 7,2 C 7,8 C 89 % 1009,4 hPa 0,0 l/m 0 min 2 min 0 W/m 19,3 km/h (3 Bft) 100,00 %
10.05.2020 23:14 9,1 C 7,2 C 7,8 C 89 % 1009,5 hPa 0,0 l/m 0 min 0 min 0 W/m 16,1 km/h (3 Bft) 100,00 %
10.05.2020 23:16 9,1 C 7,2 C 7,8 C 89 % 1009,7 hPa 0,0 l/m 0 min 0 min 0 W/m 6,4 km/h (2 Bft) 97,83 %
10.05.2020 23:18 9,0 C 7,2 C 7,8 C 89 % 1009,6 hPa 0,0 l/m 0 min 0 min 0 W/m 6,4 km/h (2 Bft) 97,87 %
10.05.2020 23:20 9,0 C 7,2 C 7,8 C 89 % 1009,6 hPa 0,0 l/m 0 min 0 min 0 W/m 3,2 km/h (1 Bft) 97,87 %
10.05.2020 23:22 8,9 C 7,8 C 7,8 C 89 % 1009,6 hPa 0,0 l/m 0 min 2 min 0 W/m 3,2 km/h (1 Bft) 97,87 %
10.05.2020 23:24 8,9 C 7,8 C 7,8 C 89 % 1009,5 hPa 0,0 l/m 0 min 0 min 0 W/m 3,2 km/h (1 Bft) 97,87 %
10.05.2020 23:26 8,9 C 7,8 C 7,8 C 89 % 1009,6 hPa 0,0 l/m 0 min 0 min 0 W/m 3,2 km/h (1 Bft) 95,74 %
10.05.2020 23:28 8,9 C 7,2 C 7,8 C 89 % 1009,6 hPa 0,0 l/m 0 min 0 min 0 W/m 16,1 km/h (3 Bft) 97,83 %
10.05.2020 23:30 8,9 C 7,2 C 7,8 C 89 % 1009,7 hPa 0,0 l/m 0 min 0 min 0 W/m 6,4 km/h (2 Bft) 97,87 %
10.05.2020 23:32 8,9 C 7,2 C 7,8 C 89 % 1009,7 hPa 0,0 l/m 0 min 2 min 0 W/m 22,5 km/h (4 Bft) 97,87 %
10.05.2020 23:34 8,8 C 7,2 C 7,8 C 89 % 1009,8 hPa 0,0 l/m 0 min 2 min 0 W/m 19,3 km/h (3 Bft) 97,87 %
10.05.2020 23:36 8,8 C 7,2 C 7,8 C 89 % 1009,8 hPa 0,0 l/m 0 min 0 min 0 W/m 16,1 km/h (3 Bft) 97,87 %
10.05.2020 23:38 8,8 C 7,2 C 7,8 C 88 % 1009,8 hPa 0,0 l/m 0 min 0 min 0 W/m 9,7 km/h (2 Bft) 95,65 %
10.05.2020 23:40 8,8 C 7,2 C 7,8 C 89 % 1009,9 hPa 0,0 l/m 0 min 0 min 0 W/m 3,2 km/h (1 Bft) 95,74 %
10.05.2020 23:42 8,7 C 7,2 C 7,8 C 89 % 1009,9 hPa 0,0 l/m 0 min 2 min 0 W/m 9,7 km/h (2 Bft) 95,74 %
10.05.2020 23:44 8,7 C 7,2 C 7,8 C 89 % 1009,8 hPa 0,0 l/m 0 min 0 min 0 W/m 6,4 km/h (2 Bft) 97,87 %
10.05.2020 23:46 8,7 C 7,2 C 7,8 C 88 % 1009,8 hPa 0,0 l/m 0 min 0 min 0 W/m 16,1 km/h (3 Bft) 97,87 %
10.05.2020 23:48 8,6 C 7,8 C 7,8 C 88 % 1009,9 hPa 0,0 l/m 0 min 0 min 0 W/m 19,3 km/h (3 Bft) 95,74 %
10.05.2020 23:50 8,6 C 7,8 C 7,8 C 88 % 1009,8 hPa 0,0 l/m 0 min 0 min 0 W/m 16,1 km/h (3 Bft) 94,44 %
10.05.2020 23:52 8,6 C 7,8 C 7,8 C 88 % 1009,8 hPa 0,0 l/m 0 min 0 min 0 W/m 25,7 km/h (4 Bft) 97,87 %
10.05.2020 23:54 8,6 C 7,8 C 7,8 C 88 % 1009,8 hPa 0,0 l/m 0 min 0 min 0 W/m 12,9 km/h (3 Bft) 97,87 %
10.05.2020 23:56 8,6 C 7,8 C 7,8 C 88 % 1009,7 hPa 0,0 l/m 0 min 0 min 0 W/m 6,4 km/h (2 Bft) 97,87 %
10.05.2020 23:58 8,6 C 7,8 C 7,8 C 88 % 1009,6 hPa 0,0 l/m 0 min 0 min 0 W/m 3,2 km/h (1 Bft) 95,74 %
_ Min-Zeit 23:48 23:02 22:58 10:54 19:22 - - - - 00:00 00:56
Minimum _ 8,6 C 7,2 C 7,8 C 66 % 1004,7 hPa - - - - 0,0 km/h (0 Bft) 48,72 %
_ Max-Zeit 11:54 10:36 10:44 06:22 23:40 14:52 09:38 13:46 10:38 21:12 01:20
Maximum _ 20,6 C 25,6 C 27,8 C 90 % 1009,9 hPa 0,2 l/m 2 min 2 min 932 W/m 38,6 km/h
W-SW (5 Bft)
100,00 %
Durchschnitt _ 16,4 C 15,8 C 15,2 C 80 % 1006,5 hPa #0,4 l/m #1:32 h #2:10 h 171 W/m 5,0 km/h (1 Bft) 97,42 %
© 2020 W. Hausmann